<?xml version="1.0" encoding="UTF-8" standalone="no" ?>
<gpx xmlns="http://www.topografix.com/GPX/1/1" xmlns:xsi="http://www.w3.org/2001/XMLSchema-instance" xsi:schemaLocation="http://www.topografix.com/GPX/1/1 http://www.topografix.com/GPX/1/1/gpx.xsd" version="1.1" creator="VisuGPX - https://www.visugpx.com">
  <metadata>
    <name>RANDO DU CAMPING DES TOURNELS</name>
    <desc><![CDATA[petite randonnée VTT dans les environs de Ramatuelle sympa dirigée par Henri que je remercie pour cette ballade sympa]]></desc>
  </metadata>
  <trk>
    <name><![CDATA[2015-08-17T07_0]]></name>
    <trkseg>
      <trkpt lat="43.20582" lon="6.64448">
        <ele>16.4797363</ele>
        <time>2015-08-17T07:05:20Z</time>
      </trkpt>
      <trkpt lat="43.20564" lon="6.64443">
        <ele>16.4797363</ele>
        <time>2015-08-17T07:05:28Z</time>
      </trkpt>
      <trkpt lat="43.20545" lon="6.64438">
        <ele>15.9990234</ele>
        <time>2015-08-17T07:05:35Z</time>
      </trkpt>
      <trkpt lat="43.20519" lon="6.6443">
        <ele>20.3249512</ele>
        <time>2015-08-17T07:05:44Z</time>
      </trkpt>
      <trkpt lat="43.20495" lon="6.64424">
        <ele>24.1702881</ele>
        <time>2015-08-17T07:05:52Z</time>
      </trkpt>
      <trkpt lat="43.20475" lon="6.64416">
        <ele>25.6123047</ele>
        <time>2015-08-17T07:05:59Z</time>
      </trkpt>
      <trkpt lat="43.20453" lon="6.64402">
        <ele>25.1317139</ele>
        <time>2015-08-17T07:06:07Z</time>
      </trkpt>
      <trkpt lat="43.20435" lon="6.64394">
        <ele>22.7282715</ele>
        <time>2015-08-17T07:06:12Z</time>
      </trkpt>
      <trkpt lat="43.20404" lon="6.64388">
        <ele>19.8443604</ele>
        <time>2015-08-17T07:06:19Z</time>
      </trkpt>
      <trkpt lat="43.20385" lon="6.64384">
        <ele>18.4023438</ele>
        <time>2015-08-17T07:06:23Z</time>
      </trkpt>
      <trkpt lat="43.20363" lon="6.64361">
        <ele>19.3637695</ele>
        <time>2015-08-17T07:06:28Z</time>
      </trkpt>
      <trkpt lat="43.20345" lon="6.6432">
        <ele>20.8056641</ele>
        <time>2015-08-17T07:06:35Z</time>
      </trkpt>
      <trkpt lat="43.20324" lon="6.64304">
        <ele>22.2475586</ele>
        <time>2015-08-17T07:06:40Z</time>
      </trkpt>
      <trkpt lat="43.20305" lon="6.64311">
        <ele>24.651001</ele>
        <time>2015-08-17T07:06:44Z</time>
      </trkpt>
      <trkpt lat="43.20264" lon="6.64332">
        <ele>28.4962158</ele>
        <time>2015-08-17T07:06:53Z</time>
      </trkpt>
      <trkpt lat="43.20237" lon="6.64343">
        <ele>28.9769287</ele>
        <time>2015-08-17T07:07:00Z</time>
      </trkpt>
      <trkpt lat="43.20216" lon="6.64354">
        <ele>28.4962158</ele>
        <time>2015-08-17T07:07:06Z</time>
      </trkpt>
      <trkpt lat="43.20194" lon="6.64367">
        <ele>27.5349121</ele>
        <time>2015-08-17T07:07:12Z</time>
      </trkpt>
      <trkpt lat="43.20182" lon="6.64373">
        <ele>27.5349121</ele>
        <time>2015-08-17T07:07:15Z</time>
      </trkpt>
      <trkpt lat="43.20162" lon="6.64385">
        <ele>28.0155029</ele>
        <time>2015-08-17T07:07:21Z</time>
      </trkpt>
      <trkpt lat="43.20135" lon="6.64401">
        <ele>28.9769287</ele>
        <time>2015-08-17T07:07:29Z</time>
      </trkpt>
      <trkpt lat="43.20121" lon="6.64409">
        <ele>29.9381104</ele>
        <time>2015-08-17T07:07:35Z</time>
      </trkpt>
      <trkpt lat="43.20105" lon="6.64418">
        <ele>31.380127</ele>
        <time>2015-08-17T07:07:42Z</time>
      </trkpt>
      <trkpt lat="43.20099" lon="6.6442">
        <ele>33.3028564</ele>
        <time>2015-08-17T07:07:45Z</time>
      </trkpt>
      <trkpt lat="43.20092" lon="6.64413">
        <ele>31.8607178</ele>
        <time>2015-08-17T07:07:49Z</time>
      </trkpt>
      <trkpt lat="43.20079" lon="6.64394">
        <ele>30.4188232</ele>
        <time>2015-08-17T07:07:55Z</time>
      </trkpt>
      <trkpt lat="43.20056" lon="6.64373">
        <ele>29.4575195</ele>
        <time>2015-08-17T07:08:01Z</time>
      </trkpt>
      <trkpt lat="43.20051" lon="6.64369">
        <ele>29.4575195</ele>
        <time>2015-08-17T07:08:02Z</time>
      </trkpt>
      <trkpt lat="43.20035" lon="6.6434">
        <ele>27.5349121</ele>
        <time>2015-08-17T07:08:07Z</time>
      </trkpt>
      <trkpt lat="43.20044" lon="6.64313">
        <ele>26.0928955</ele>
        <time>2015-08-17T07:08:10Z</time>
      </trkpt>
      <trkpt lat="43.20055" lon="6.64298">
        <ele>26.5736084</ele>
        <time>2015-08-17T07:08:12Z</time>
      </trkpt>
      <trkpt lat="43.20082" lon="6.64267">
        <ele>27.0543213</ele>
        <time>2015-08-17T07:08:17Z</time>
      </trkpt>
      <trkpt lat="43.20095" lon="6.64251">
        <ele>28.9769287</ele>
        <time>2015-08-17T07:08:21Z</time>
      </trkpt>
      <trkpt lat="43.20116" lon="6.64232">
        <ele>28.4962158</ele>
        <time>2015-08-17T07:08:27Z</time>
      </trkpt>
      <trkpt lat="43.20141" lon="6.64208">
        <ele>29.9381104</ele>
        <time>2015-08-17T07:08:34Z</time>
      </trkpt>
      <trkpt lat="43.20148" lon="6.642">
        <ele>30.4188232</ele>
        <time>2015-08-17T07:08:36Z</time>
      </trkpt>
      <trkpt lat="43.20154" lon="6.64192">
        <ele>29.4575195</ele>
        <time>2015-08-17T07:08:38Z</time>
      </trkpt>
      <trkpt lat="43.2017" lon="6.64157">
        <ele>28.4962158</ele>
        <time>2015-08-17T07:08:44Z</time>
      </trkpt>
      <trkpt lat="43.20189" lon="6.64114">
        <ele>26.0928955</ele>
        <time>2015-08-17T07:08:51Z</time>
      </trkpt>
      <trkpt lat="43.2021" lon="6.64071">
        <ele>25.1317139</ele>
        <time>2015-08-17T07:08:57Z</time>
      </trkpt>
      <trkpt lat="43.20226" lon="6.64025">
        <ele>23.2089844</ele>
        <time>2015-08-17T07:09:03Z</time>
      </trkpt>
      <trkpt lat="43.20227" lon="6.63995">
        <ele>23.2089844</ele>
        <time>2015-08-17T07:09:07Z</time>
      </trkpt>
      <trkpt lat="43.20218" lon="6.63961">
        <ele>25.1317139</ele>
        <time>2015-08-17T07:09:13Z</time>
      </trkpt>
      <trkpt lat="43.20217" lon="6.63956">
        <ele>25.1317139</ele>
        <time>2015-08-17T07:09:14Z</time>
      </trkpt>
      <trkpt lat="43.20209" lon="6.63924">
        <ele>26.5736084</ele>
        <time>2015-08-17T07:09:21Z</time>
      </trkpt>
      <trkpt lat="43.20201" lon="6.63901">
        <ele>24.651001</ele>
        <time>2015-08-17T07:09:26Z</time>
      </trkpt>
      <trkpt lat="43.2019" lon="6.63881">
        <ele>24.1702881</ele>
        <time>2015-08-17T07:09:32Z</time>
      </trkpt>
      <trkpt lat="43.20184" lon="6.63859">
        <ele>23.6895752</ele>
        <time>2015-08-17T07:09:37Z</time>
      </trkpt>
      <trkpt lat="43.20182" lon="6.63817">
        <ele>23.2089844</ele>
        <time>2015-08-17T07:09:43Z</time>
      </trkpt>
      <trkpt lat="43.20182" lon="6.6381">
        <ele>23.6895752</ele>
        <time>2015-08-17T07:09:44Z</time>
      </trkpt>
      <trkpt lat="43.20186" lon="6.63786">
        <ele>24.651001</ele>
        <time>2015-08-17T07:09:49Z</time>
      </trkpt>
      <trkpt lat="43.20191" lon="6.63772">
        <ele>24.1702881</ele>
        <time>2015-08-17T07:09:52Z</time>
      </trkpt>
      <trkpt lat="43.20207" lon="6.63745">
        <ele>24.651001</ele>
        <time>2015-08-17T07:09:57Z</time>
      </trkpt>
      <trkpt lat="43.2023" lon="6.63709">
        <ele>21.7669678</ele>
        <time>2015-08-17T07:10:03Z</time>
      </trkpt>
      <trkpt lat="43.20251" lon="6.63673">
        <ele>21.286377</ele>
        <time>2015-08-17T07:10:08Z</time>
      </trkpt>
      <trkpt lat="43.20283" lon="6.6365">
        <ele>21.286377</ele>
        <time>2015-08-17T07:10:13Z</time>
      </trkpt>
      <trkpt lat="43.20317" lon="6.63631">
        <ele>19.8443604</ele>
        <time>2015-08-17T07:10:18Z</time>
      </trkpt>
      <trkpt lat="43.20342" lon="6.63595">
        <ele>18.4023438</ele>
        <time>2015-08-17T07:10:23Z</time>
      </trkpt>
      <trkpt lat="43.20348" lon="6.63556">
        <ele>16.9604492</ele>
        <time>2015-08-17T07:10:27Z</time>
      </trkpt>
      <trkpt lat="43.20348" lon="6.63546">
        <ele>16.4797363</ele>
        <time>2015-08-17T07:10:28Z</time>
      </trkpt>
      <trkpt lat="43.20351" lon="6.63487">
        <ele>15.5184326</ele>
        <time>2015-08-17T07:10:34Z</time>
      </trkpt>
      <trkpt lat="43.20367" lon="6.63458">
        <ele>16.4797363</ele>
        <time>2015-08-17T07:10:38Z</time>
      </trkpt>
      <trkpt lat="43.20373" lon="6.63453">
        <ele>16.9604492</ele>
        <time>2015-08-17T07:10:39Z</time>
      </trkpt>
      <trkpt lat="43.20412" lon="6.63425">
        <ele>18.8830566</ele>
        <time>2015-08-17T07:10:47Z</time>
      </trkpt>
      <trkpt lat="43.20417" lon="6.63421">
        <ele>18.8830566</ele>
        <time>2015-08-17T07:10:48Z</time>
      </trkpt>
      <trkpt lat="43.20432" lon="6.63396">
        <ele>19.8443604</ele>
        <time>2015-08-17T07:10:53Z</time>
      </trkpt>
      <trkpt lat="43.20435" lon="6.63384">
        <ele>20.3249512</ele>
        <time>2015-08-17T07:10:55Z</time>
      </trkpt>
      <trkpt lat="43.20452" lon="6.63366">
        <ele>21.7669678</ele>
        <time>2015-08-17T07:11:00Z</time>
      </trkpt>
      <trkpt lat="43.20469" lon="6.63348">
        <ele>21.286377</ele>
        <time>2015-08-17T07:11:05Z</time>
      </trkpt>
      <trkpt lat="43.20469" lon="6.63336">
        <ele>21.286377</ele>
        <time>2015-08-17T07:11:07Z</time>
      </trkpt>
      <trkpt lat="43.20465" lon="6.63311">
        <ele>22.2475586</ele>
        <time>2015-08-17T07:11:11Z</time>
      </trkpt>
      <trkpt lat="43.20469" lon="6.63277">
        <ele>21.286377</ele>
        <time>2015-08-17T07:11:16Z</time>
      </trkpt>
      <trkpt lat="43.20471" lon="6.63271">
        <ele>20.8056641</ele>
        <time>2015-08-17T07:11:17Z</time>
      </trkpt>
      <trkpt lat="43.20482" lon="6.63234">
        <ele>19.3637695</ele>
        <time>2015-08-17T07:11:23Z</time>
      </trkpt>
      <trkpt lat="43.20473" lon="6.63198">
        <ele>19.3637695</ele>
        <time>2015-08-17T07:11:29Z</time>
      </trkpt>
      <trkpt lat="43.20444" lon="6.63148">
        <ele>21.7669678</ele>
        <time>2015-08-17T07:11:39Z</time>
      </trkpt>
      <trkpt lat="43.20436" lon="6.63135">
        <ele>22.2475586</ele>
        <time>2015-08-17T07:11:42Z</time>
      </trkpt>
      <trkpt lat="43.20431" lon="6.63113">
        <ele>22.7282715</ele>
        <time>2015-08-17T07:11:46Z</time>
      </trkpt>
      <trkpt lat="43.20439" lon="6.63097">
        <ele>22.7282715</ele>
        <time>2015-08-17T07:11:49Z</time>
      </trkpt>
      <trkpt lat="43.20464" lon="6.63067">
        <ele>22.2475586</ele>
        <time>2015-08-17T07:11:56Z</time>
      </trkpt>
      <trkpt lat="43.20488" lon="6.63048">
        <ele>22.7282715</ele>
        <time>2015-08-17T07:12:02Z</time>
      </trkpt>
      <trkpt lat="43.20496" lon="6.63041">
        <ele>22.7282715</ele>
        <time>2015-08-17T07:12:04Z</time>
      </trkpt>
      <trkpt lat="43.20526" lon="6.63027">
        <ele>21.7669678</ele>
        <time>2015-08-17T07:12:10Z</time>
      </trkpt>
      <trkpt lat="43.20547" lon="6.63022">
        <ele>21.286377</ele>
        <time>2015-08-17T07:12:15Z</time>
      </trkpt>
      <trkpt lat="43.20562" lon="6.63003">
        <ele>21.286377</ele>
        <time>2015-08-17T07:12:20Z</time>
      </trkpt>
      <trkpt lat="43.20564" lon="6.62993">
        <ele>21.286377</ele>
        <time>2015-08-17T07:12:22Z</time>
      </trkpt>
      <trkpt lat="43.20561" lon="6.62937">
        <ele>23.2089844</ele>
        <time>2015-08-17T07:12:32Z</time>
      </trkpt>
      <trkpt lat="43.20564" lon="6.62904">
        <ele>24.1702881</ele>
        <time>2015-08-17T07:12:38Z</time>
      </trkpt>
      <trkpt lat="43.20575" lon="6.62866">
        <ele>24.651001</ele>
        <time>2015-08-17T07:12:46Z</time>
      </trkpt>
      <trkpt lat="43.20588" lon="6.62842">
        <ele>26.0928955</ele>
        <time>2015-08-17T07:12:52Z</time>
      </trkpt>
      <trkpt lat="43.20603" lon="6.62821">
        <ele>27.5349121</ele>
        <time>2015-08-17T07:12:57Z</time>
      </trkpt>
      <trkpt lat="43.20613" lon="6.62809">
        <ele>28.0155029</ele>
        <time>2015-08-17T07:13:00Z</time>
      </trkpt>
      <trkpt lat="43.20628" lon="6.62791">
        <ele>28.9769287</ele>
        <time>2015-08-17T07:13:05Z</time>
      </trkpt>
      <trkpt lat="43.20636" lon="6.6278">
        <ele>29.9381104</ele>
        <time>2015-08-17T07:13:08Z</time>
      </trkpt>
      <trkpt lat="43.2065" lon="6.62757">
        <ele>28.4962158</ele>
        <time>2015-08-17T07:13:14Z</time>
      </trkpt>
      <trkpt lat="43.20646" lon="6.62725">
        <ele>29.4575195</ele>
        <time>2015-08-17T07:13:20Z</time>
      </trkpt>
      <trkpt lat="43.20644" lon="6.62699">
        <ele>27.5349121</ele>
        <time>2015-08-17T07:13:25Z</time>
      </trkpt>
      <trkpt lat="43.2066" lon="6.62686">
        <ele>28.0155029</ele>
        <time>2015-08-17T07:13:30Z</time>
      </trkpt>
      <trkpt lat="43.20676" lon="6.62675">
        <ele>29.9381104</ele>
        <time>2015-08-17T07:13:35Z</time>
      </trkpt>
      <trkpt lat="43.20689" lon="6.62649">
        <ele>30.4188232</ele>
        <time>2015-08-17T07:13:41Z</time>
      </trkpt>
      <trkpt lat="43.20705" lon="6.62635">
        <ele>30.8995361</ele>
        <time>2015-08-17T07:13:46Z</time>
      </trkpt>
      <trkpt lat="43.20717" lon="6.62621">
        <ele>30.8995361</ele>
        <time>2015-08-17T07:13:50Z</time>
      </trkpt>
      <trkpt lat="43.20721" lon="6.62594">
        <ele>30.8995361</ele>
        <time>2015-08-17T07:13:55Z</time>
      </trkpt>
      <trkpt lat="43.20726" lon="6.62554">
        <ele>32.3415527</ele>
        <time>2015-08-17T07:14:02Z</time>
      </trkpt>
      <trkpt lat="43.20735" lon="6.62522">
        <ele>31.8607178</ele>
        <time>2015-08-17T07:14:08Z</time>
      </trkpt>
      <trkpt lat="43.20747" lon="6.62485">
        <ele>29.9381104</ele>
        <time>2015-08-17T07:14:15Z</time>
      </trkpt>
      <trkpt lat="43.20744" lon="6.6244">
        <ele>32.3415527</ele>
        <time>2015-08-17T07:14:23Z</time>
      </trkpt>
      <trkpt lat="43.20742" lon="6.62399">
        <ele>34.744873</ele>
        <time>2015-08-17T07:14:31Z</time>
      </trkpt>
      <trkpt lat="43.20745" lon="6.62362">
        <ele>35.2254639</ele>
        <time>2015-08-17T07:14:39Z</time>
      </trkpt>
      <trkpt lat="43.2074" lon="6.6233">
        <ele>36.6674805</ele>
        <time>2015-08-17T07:14:46Z</time>
      </trkpt>
      <trkpt lat="43.20729" lon="6.62295">
        <ele>38.109375</ele>
        <time>2015-08-17T07:14:54Z</time>
      </trkpt>
      <trkpt lat="43.20723" lon="6.62267">
        <ele>39.5512695</ele>
        <time>2015-08-17T07:15:01Z</time>
      </trkpt>
      <trkpt lat="43.20731" lon="6.6225">
        <ele>40.5128174</ele>
        <time>2015-08-17T07:15:06Z</time>
      </trkpt>
      <trkpt lat="43.20747" lon="6.6223">
        <ele>42.4354248</ele>
        <time>2015-08-17T07:15:14Z</time>
      </trkpt>
      <trkpt lat="43.20764" lon="6.6221">
        <ele>43.8773193</ele>
        <time>2015-08-17T07:15:22Z</time>
      </trkpt>
      <trkpt lat="43.20778" lon="6.62196">
        <ele>44.838623</ele>
        <time>2015-08-17T07:15:28Z</time>
      </trkpt>
      <trkpt lat="43.20796" lon="6.62184">
        <ele>45.7999268</ele>
        <time>2015-08-17T07:15:35Z</time>
      </trkpt>
      <trkpt lat="43.20821" lon="6.62168">
        <ele>45.3192139</ele>
        <time>2015-08-17T07:15:44Z</time>
      </trkpt>
      <trkpt lat="43.20847" lon="6.62151">
        <ele>45.7999268</ele>
        <time>2015-08-17T07:15:53Z</time>
      </trkpt>
      <trkpt lat="43.20871" lon="6.62134">
        <ele>45.3192139</ele>
        <time>2015-08-17T07:16:01Z</time>
      </trkpt>
      <trkpt lat="43.20893" lon="6.6212">
        <ele>44.3580322</ele>
        <time>2015-08-17T07:16:08Z</time>
      </trkpt>
      <trkpt lat="43.20913" lon="6.62113">
        <ele>45.3192139</ele>
        <time>2015-08-17T07:16:14Z</time>
      </trkpt>
      <trkpt lat="43.20943" lon="6.62114">
        <ele>47.2418213</ele>
        <time>2015-08-17T07:16:22Z</time>
      </trkpt>
      <trkpt lat="43.20969" lon="6.62125">
        <ele>48.2033691</ele>
        <time>2015-08-17T07:16:29Z</time>
      </trkpt>
      <trkpt lat="43.20988" lon="6.62143">
        <ele>47.2418213</ele>
        <time>2015-08-17T07:16:34Z</time>
      </trkpt>
      <trkpt lat="43.21013" lon="6.6218">
        <ele>45.3192139</ele>
        <time>2015-08-17T07:16:40Z</time>
      </trkpt>
      <trkpt lat="43.2104" lon="6.62216">
        <ele>42.4354248</ele>
        <time>2015-08-17T07:16:46Z</time>
      </trkpt>
      <trkpt lat="43.21065" lon="6.62238">
        <ele>41.473999</ele>
        <time>2015-08-17T07:16:50Z</time>
      </trkpt>
      <trkpt lat="43.21111" lon="6.62261">
        <ele>38.5900879</ele>
        <time>2015-08-17T07:16:56Z</time>
      </trkpt>
      <trkpt lat="43.21164" lon="6.62281">
        <ele>37.1480713</ele>
        <time>2015-08-17T07:17:03Z</time>
      </trkpt>
      <trkpt lat="43.21187" lon="6.62293">
        <ele>38.109375</ele>
        <time>2015-08-17T07:17:07Z</time>
      </trkpt>
      <trkpt lat="43.21201" lon="6.62306">
        <ele>40.0321045</ele>
        <time>2015-08-17T07:17:10Z</time>
      </trkpt>
      <trkpt lat="43.21216" lon="6.62327">
        <ele>41.473999</ele>
        <time>2015-08-17T07:17:14Z</time>
      </trkpt>
      <trkpt lat="43.2124" lon="6.62382">
        <ele>39.0706787</ele>
        <time>2015-08-17T07:17:22Z</time>
      </trkpt>
      <trkpt lat="43.21249" lon="6.62402">
        <ele>38.109375</ele>
        <time>2015-08-17T07:17:25Z</time>
      </trkpt>
      <trkpt lat="43.21263" lon="6.62426">
        <ele>35.2254639</ele>
        <time>2015-08-17T07:17:29Z</time>
      </trkpt>
      <trkpt lat="43.21276" lon="6.62458">
        <ele>32.3415527</ele>
        <time>2015-08-17T07:17:34Z</time>
      </trkpt>
      <trkpt lat="43.21287" lon="6.62459">
        <ele>31.380127</ele>
        <time>2015-08-17T07:17:36Z</time>
      </trkpt>
      <trkpt lat="43.21301" lon="6.62448">
        <ele>31.380127</ele>
        <time>2015-08-17T07:17:39Z</time>
      </trkpt>
      <trkpt lat="43.21304" lon="6.62443">
        <ele>30.8995361</ele>
        <time>2015-08-17T07:17:40Z</time>
      </trkpt>
      <trkpt lat="43.21315" lon="6.62425">
        <ele>32.3415527</ele>
        <time>2015-08-17T07:17:44Z</time>
      </trkpt>
      <trkpt lat="43.21332" lon="6.62396">
        <ele>36.1867676</ele>
        <time>2015-08-17T07:17:51Z</time>
      </trkpt>
      <trkpt lat="43.21347" lon="6.62383">
        <ele>38.109375</ele>
        <time>2015-08-17T07:17:56Z</time>
      </trkpt>
      <trkpt lat="43.21363" lon="6.62365">
        <ele>39.0706787</ele>
        <time>2015-08-17T07:18:02Z</time>
      </trkpt>
      <trkpt lat="43.21377" lon="6.6234">
        <ele>38.5900879</ele>
        <time>2015-08-17T07:18:09Z</time>
      </trkpt>
      <trkpt lat="43.21378" lon="6.62314">
        <ele>39.5512695</ele>
        <time>2015-08-17T07:18:14Z</time>
      </trkpt>
      <trkpt lat="43.21391" lon="6.6229">
        <ele>40.9934082</ele>
        <time>2015-08-17T07:18:20Z</time>
      </trkpt>
      <trkpt lat="43.21401" lon="6.62268">
        <ele>44.3580322</ele>
        <time>2015-08-17T07:18:27Z</time>
      </trkpt>
      <trkpt lat="43.21409" lon="6.62248">
        <ele>46.2806396</ele>
        <time>2015-08-17T07:18:34Z</time>
      </trkpt>
      <trkpt lat="43.21417" lon="6.62227">
        <ele>47.7225342</ele>
        <time>2015-08-17T07:18:41Z</time>
      </trkpt>
      <trkpt lat="43.21425" lon="6.62216">
        <ele>47.7225342</ele>
        <time>2015-08-17T07:18:45Z</time>
      </trkpt>
      <trkpt lat="43.21442" lon="6.62229">
        <ele>46.2806396</ele>
        <time>2015-08-17T07:18:49Z</time>
      </trkpt>
      <trkpt lat="43.2147" lon="6.62244">
        <ele>45.7999268</ele>
        <time>2015-08-17T07:18:54Z</time>
      </trkpt>
      <trkpt lat="43.21484" lon="6.62241">
        <ele>44.838623</ele>
        <time>2015-08-17T07:18:56Z</time>
      </trkpt>
      <trkpt lat="43.21533" lon="6.62247">
        <ele>42.9160156</ele>
        <time>2015-08-17T07:19:03Z</time>
      </trkpt>
      <trkpt lat="43.21556" lon="6.62252">
        <ele>41.473999</ele>
        <time>2015-08-17T07:19:07Z</time>
      </trkpt>
      <trkpt lat="43.21568" lon="6.62269">
        <ele>41.9547119</ele>
        <time>2015-08-17T07:19:11Z</time>
      </trkpt>
      <trkpt lat="43.21568" lon="6.62275">
        <ele>41.9547119</ele>
        <time>2015-08-17T07:19:12Z</time>
      </trkpt>
      <trkpt lat="43.21565" lon="6.6232">
        <ele>44.3580322</ele>
        <time>2015-08-17T07:19:20Z</time>
      </trkpt>
      <trkpt lat="43.21559" lon="6.6235">
        <ele>47.2418213</ele>
        <time>2015-08-17T07:19:27Z</time>
      </trkpt>
      <trkpt lat="43.21554" lon="6.62383">
        <ele>48.2033691</ele>
        <time>2015-08-17T07:19:33Z</time>
      </trkpt>
      <trkpt lat="43.21551" lon="6.62406">
        <ele>49.6452637</ele>
        <time>2015-08-17T07:19:37Z</time>
      </trkpt>
      <trkpt lat="43.21552" lon="6.62422">
        <ele>49.6452637</ele>
        <time>2015-08-17T07:19:40Z</time>
      </trkpt>
      <trkpt lat="43.21558" lon="6.62444">
        <ele>48.2033691</ele>
        <time>2015-08-17T07:19:44Z</time>
      </trkpt>
      <trkpt lat="43.21563" lon="6.62459">
        <ele>48.2033691</ele>
        <time>2015-08-17T07:19:47Z</time>
      </trkpt>
      <trkpt lat="43.21568" lon="6.62474">
        <ele>48.68396</ele>
        <time>2015-08-17T07:19:50Z</time>
      </trkpt>
      <trkpt lat="43.21575" lon="6.62489">
        <ele>47.2418213</ele>
        <time>2015-08-17T07:19:53Z</time>
      </trkpt>
      <trkpt lat="43.21583" lon="6.62529">
        <ele>46.7612305</ele>
        <time>2015-08-17T07:20:00Z</time>
      </trkpt>
      <trkpt lat="43.21588" lon="6.62576">
        <ele>47.7225342</ele>
        <time>2015-08-17T07:20:09Z</time>
      </trkpt>
      <trkpt lat="43.21592" lon="6.62611">
        <ele>49.1645508</ele>
        <time>2015-08-17T07:20:16Z</time>
      </trkpt>
      <trkpt lat="43.21599" lon="6.62654">
        <ele>50.1259766</ele>
        <time>2015-08-17T07:20:25Z</time>
      </trkpt>
      <trkpt lat="43.21598" lon="6.62685">
        <ele>49.6452637</ele>
        <time>2015-08-17T07:20:31Z</time>
      </trkpt>
      <trkpt lat="43.2159" lon="6.62716">
        <ele>50.6065674</ele>
        <time>2015-08-17T07:20:37Z</time>
      </trkpt>
      <trkpt lat="43.21588" lon="6.62722">
        <ele>50.6065674</ele>
        <time>2015-08-17T07:20:38Z</time>
      </trkpt>
      <trkpt lat="43.21583" lon="6.62748">
        <ele>50.6065674</ele>
        <time>2015-08-17T07:20:42Z</time>
      </trkpt>
      <trkpt lat="43.21584" lon="6.62784">
        <ele>51.0871582</ele>
        <time>2015-08-17T07:20:48Z</time>
      </trkpt>
      <trkpt lat="43.21593" lon="6.62814">
        <ele>50.1259766</ele>
        <time>2015-08-17T07:20:54Z</time>
      </trkpt>
      <trkpt lat="43.21596" lon="6.62851">
        <ele>51.0871582</ele>
        <time>2015-08-17T07:21:01Z</time>
      </trkpt>
      <trkpt lat="43.21596" lon="6.62885">
        <ele>52.048584</ele>
        <time>2015-08-17T07:21:08Z</time>
      </trkpt>
      <trkpt lat="43.21593" lon="6.62921">
        <ele>54.4517822</ele>
        <time>2015-08-17T07:21:15Z</time>
      </trkpt>
      <trkpt lat="43.21588" lon="6.62959">
        <ele>56.3745117</ele>
        <time>2015-08-17T07:21:22Z</time>
      </trkpt>
      <trkpt lat="43.21581" lon="6.62984">
        <ele>57.8165283</ele>
        <time>2015-08-17T07:21:26Z</time>
      </trkpt>
      <trkpt lat="43.21576" lon="6.63026">
        <ele>59.7391357</ele>
        <time>2015-08-17T07:21:33Z</time>
      </trkpt>
      <trkpt lat="43.21575" lon="6.63063">
        <ele>61.1810303</ele>
        <time>2015-08-17T07:21:40Z</time>
      </trkpt>
      <trkpt lat="43.21572" lon="6.63112">
        <ele>61.6617432</ele>
        <time>2015-08-17T07:21:48Z</time>
      </trkpt>
      <trkpt lat="43.21566" lon="6.63149">
        <ele>62.6229248</ele>
        <time>2015-08-17T07:21:54Z</time>
      </trkpt>
      <trkpt lat="43.21563" lon="6.63176">
        <ele>62.6229248</ele>
        <time>2015-08-17T07:21:59Z</time>
      </trkpt>
      <trkpt lat="43.21563" lon="6.63186">
        <ele>62.142334</ele>
        <time>2015-08-17T07:22:01Z</time>
      </trkpt>
      <trkpt lat="43.21559" lon="6.63207">
        <ele>62.142334</ele>
        <time>2015-08-17T07:22:05Z</time>
      </trkpt>
      <trkpt lat="43.21548" lon="6.6324">
        <ele>58.2971191</ele>
        <time>2015-08-17T07:22:12Z</time>
      </trkpt>
      <trkpt lat="43.21541" lon="6.6325">
        <ele>55.8937988</ele>
        <time>2015-08-17T07:22:16Z</time>
      </trkpt>
      <trkpt lat="43.21537" lon="6.63256">
        <ele>54.932373</ele>
        <time>2015-08-17T07:22:19Z</time>
      </trkpt>
      <trkpt lat="43.21525" lon="6.63254">
        <ele>54.932373</ele>
        <time>2015-08-17T07:22:25Z</time>
      </trkpt>
      <trkpt lat="43.21523" lon="6.63252">
        <ele>58.2971191</ele>
        <time>2015-08-17T07:22:31Z</time>
      </trkpt>
      <trkpt lat="43.21526" lon="6.63253">
        <ele>61.1810303</ele>
        <time>2015-08-17T07:22:34Z</time>
      </trkpt>
      <trkpt lat="43.21531" lon="6.63257">
        <ele>64.0650635</ele>
        <time>2015-08-17T07:22:40Z</time>
      </trkpt>
      <trkpt lat="43.21531" lon="6.6326">
        <ele>65.9876709</ele>
        <time>2015-08-17T07:22:43Z</time>
      </trkpt>
      <trkpt lat="43.21527" lon="6.63267">
        <ele>67.4296875</ele>
        <time>2015-08-17T07:22:47Z</time>
      </trkpt>
      <trkpt lat="43.21524" lon="6.63272">
        <ele>66.9489746</ele>
        <time>2015-08-17T07:22:50Z</time>
      </trkpt>
      <trkpt lat="43.21522" lon="6.63284">
        <ele>64.5456543</ele>
        <time>2015-08-17T07:22:56Z</time>
      </trkpt>
      <trkpt lat="43.21528" lon="6.63288">
        <ele>65.5070801</ele>
        <time>2015-08-17T07:23:01Z</time>
      </trkpt>
      <trkpt lat="43.21533" lon="6.63287">
        <ele>66.4682617</ele>
        <time>2015-08-17T07:23:04Z</time>
      </trkpt>
      <trkpt lat="43.21546" lon="6.63286">
        <ele>68.3908691</ele>
        <time>2015-08-17T07:23:11Z</time>
      </trkpt>
      <trkpt lat="43.21561" lon="6.6329">
        <ele>69.3522949</ele>
        <time>2015-08-17T07:23:18Z</time>
      </trkpt>
      <trkpt lat="43.21586" lon="6.6329">
        <ele>68.871582</ele>
        <time>2015-08-17T07:23:27Z</time>
      </trkpt>
      <trkpt lat="43.21606" lon="6.63291">
        <ele>71.2749023</ele>
        <time>2015-08-17T07:23:35Z</time>
      </trkpt>
      <trkpt lat="43.2162" lon="6.63292">
        <ele>69.3522949</ele>
        <time>2015-08-17T07:23:40Z</time>
      </trkpt>
      <trkpt lat="43.21638" lon="6.63293">
        <ele>72.7169189</ele>
        <time>2015-08-17T07:23:47Z</time>
      </trkpt>
      <trkpt lat="43.21658" lon="6.63289">
        <ele>74.1588135</ele>
        <time>2015-08-17T07:23:54Z</time>
      </trkpt>
      <trkpt lat="43.21677" lon="6.63282">
        <ele>76.0814209</ele>
        <time>2015-08-17T07:24:00Z</time>
      </trkpt>
      <trkpt lat="43.21693" lon="6.63276">
        <ele>77.5234375</ele>
        <time>2015-08-17T07:24:06Z</time>
      </trkpt>
      <trkpt lat="43.21707" lon="6.63271">
        <ele>79.9266357</ele>
        <time>2015-08-17T07:24:11Z</time>
      </trkpt>
      <trkpt lat="43.21725" lon="6.6327">
        <ele>79.9266357</ele>
        <time>2015-08-17T07:24:18Z</time>
      </trkpt>
      <trkpt lat="43.21744" lon="6.6327">
        <ele>82.3300781</ele>
        <time>2015-08-17T07:24:25Z</time>
      </trkpt>
      <trkpt lat="43.21766" lon="6.6327">
        <ele>78.9654541</ele>
        <time>2015-08-17T07:24:30Z</time>
      </trkpt>
      <trkpt lat="43.21793" lon="6.63263">
        <ele>76.0814209</ele>
        <time>2015-08-17T07:24:35Z</time>
      </trkpt>
      <trkpt lat="43.21826" lon="6.6325">
        <ele>72.2362061</ele>
        <time>2015-08-17T07:24:41Z</time>
      </trkpt>
      <trkpt lat="43.21831" lon="6.63248">
        <ele>71.7554932</ele>
        <time>2015-08-17T07:24:42Z</time>
      </trkpt>
      <trkpt lat="43.21865" lon="6.63242">
        <ele>68.3908691</ele>
        <time>2015-08-17T07:24:48Z</time>
      </trkpt>
      <trkpt lat="43.21876" lon="6.63242">
        <ele>67.4296875</ele>
        <time>2015-08-17T07:24:50Z</time>
      </trkpt>
      <trkpt lat="43.219" lon="6.63244">
        <ele>60.7003174</ele>
        <time>2015-08-17T07:24:57Z</time>
      </trkpt>
      <trkpt lat="43.21926" lon="6.63243">
        <ele>55.8937988</ele>
        <time>2015-08-17T07:25:03Z</time>
      </trkpt>
      <trkpt lat="43.2194" lon="6.63244">
        <ele>54.932373</ele>
        <time>2015-08-17T07:25:06Z</time>
      </trkpt>
      <trkpt lat="43.21955" lon="6.63241">
        <ele>54.932373</ele>
        <time>2015-08-17T07:25:09Z</time>
      </trkpt>
      <trkpt lat="43.21975" lon="6.6324">
        <ele>54.932373</ele>
        <time>2015-08-17T07:25:13Z</time>
      </trkpt>
      <trkpt lat="43.21991" lon="6.63239">
        <ele>54.932373</ele>
        <time>2015-08-17T07:25:16Z</time>
      </trkpt>
      <trkpt lat="43.22032" lon="6.63227">
        <ele>55.4130859</ele>
        <time>2015-08-17T07:25:24Z</time>
      </trkpt>
      <trkpt lat="43.2206" lon="6.63221">
        <ele>58.2971191</ele>
        <time>2015-08-17T07:25:30Z</time>
      </trkpt>
      <trkpt lat="43.22088" lon="6.63215">
        <ele>58.77771</ele>
        <time>2015-08-17T07:25:37Z</time>
      </trkpt>
      <trkpt lat="43.22102" lon="6.63209">
        <ele>57.3358154</ele>
        <time>2015-08-17T07:25:40Z</time>
      </trkpt>
      <trkpt lat="43.22125" lon="6.63208">
        <ele>55.8937988</ele>
        <time>2015-08-17T07:25:45Z</time>
      </trkpt>
      <trkpt lat="43.22143" lon="6.63215">
        <ele>55.8937988</ele>
        <time>2015-08-17T07:25:49Z</time>
      </trkpt>
      <trkpt lat="43.22158" lon="6.63216">
        <ele>56.3745117</ele>
        <time>2015-08-17T07:25:52Z</time>
      </trkpt>
      <trkpt lat="43.22183" lon="6.63203">
        <ele>54.932373</ele>
        <time>2015-08-17T07:25:57Z</time>
      </trkpt>
      <trkpt lat="43.22212" lon="6.63177">
        <ele>54.4517822</ele>
        <time>2015-08-17T07:26:05Z</time>
      </trkpt>
      <trkpt lat="43.2223" lon="6.63147">
        <ele>55.4130859</ele>
        <time>2015-08-17T07:26:13Z</time>
      </trkpt>
      <trkpt lat="43.22251" lon="6.63107">
        <ele>57.3358154</ele>
        <time>2015-08-17T07:26:22Z</time>
      </trkpt>
      <trkpt lat="43.22271" lon="6.63082">
        <ele>60.2197266</ele>
        <time>2015-08-17T07:26:29Z</time>
      </trkpt>
      <trkpt lat="43.22293" lon="6.63062">
        <ele>63.1036377</ele>
        <time>2015-08-17T07:26:36Z</time>
      </trkpt>
      <trkpt lat="43.22322" lon="6.63038">
        <ele>63.1036377</ele>
        <time>2015-08-17T07:26:44Z</time>
      </trkpt>
      <trkpt lat="43.22343" lon="6.63025">
        <ele>63.5843506</ele>
        <time>2015-08-17T07:26:49Z</time>
      </trkpt>
      <trkpt lat="43.22359" lon="6.63007">
        <ele>62.6229248</ele>
        <time>2015-08-17T07:26:54Z</time>
      </trkpt>
      <trkpt lat="43.22382" lon="6.62983">
        <ele>61.1810303</ele>
        <time>2015-08-17T07:27:02Z</time>
      </trkpt>
      <trkpt lat="43.224" lon="6.62968">
        <ele>60.7003174</ele>
        <time>2015-08-17T07:27:08Z</time>
      </trkpt>
      <trkpt lat="43.22427" lon="6.62957">
        <ele>58.77771</ele>
        <time>2015-08-17T07:27:14Z</time>
      </trkpt>
      <trkpt lat="43.22431" lon="6.62954">
        <ele>58.2971191</ele>
        <time>2015-08-17T07:27:15Z</time>
      </trkpt>
      <trkpt lat="43.22457" lon="6.62924">
        <ele>57.8165283</ele>
        <time>2015-08-17T07:27:21Z</time>
      </trkpt>
      <trkpt lat="43.22477" lon="6.62896">
        <ele>58.2971191</ele>
        <time>2015-08-17T07:27:27Z</time>
      </trkpt>
      <trkpt lat="43.22498" lon="6.62862">
        <ele>59.2584229</ele>
        <time>2015-08-17T07:27:35Z</time>
      </trkpt>
      <trkpt lat="43.22514" lon="6.62844">
        <ele>58.77771</ele>
        <time>2015-08-17T07:27:41Z</time>
      </trkpt>
      <trkpt lat="43.22528" lon="6.62836">
        <ele>57.8165283</ele>
        <time>2015-08-17T07:27:44Z</time>
      </trkpt>
      <trkpt lat="43.22561" lon="6.62825">
        <ele>59.7391357</ele>
        <time>2015-08-17T07:27:51Z</time>
      </trkpt>
      <trkpt lat="43.22592" lon="6.6281">
        <ele>60.2197266</ele>
        <time>2015-08-17T07:27:58Z</time>
      </trkpt>
      <trkpt lat="43.22611" lon="6.62801">
        <ele>61.1810303</ele>
        <time>2015-08-17T07:28:03Z</time>
      </trkpt>
      <trkpt lat="43.22623" lon="6.62779">
        <ele>62.6229248</ele>
        <time>2015-08-17T07:28:09Z</time>
      </trkpt>
      <trkpt lat="43.22624" lon="6.62776">
        <ele>63.1036377</ele>
        <time>2015-08-17T07:28:10Z</time>
      </trkpt>
      <trkpt lat="43.2263" lon="6.62753">
        <ele>65.5070801</ele>
        <time>2015-08-17T07:28:17Z</time>
      </trkpt>
      <trkpt lat="43.22638" lon="6.62745">
        <ele>66.9489746</ele>
        <time>2015-08-17T07:28:22Z</time>
      </trkpt>
      <trkpt lat="43.22651" lon="6.62745">
        <ele>70.3134766</ele>
        <time>2015-08-17T07:28:29Z</time>
      </trkpt>
      <trkpt lat="43.22655" lon="6.62743">
        <ele>71.2749023</ele>
        <time>2015-08-17T07:28:31Z</time>
      </trkpt>
      <trkpt lat="43.22656" lon="6.6273">
        <ele>73.6782227</ele>
        <time>2015-08-17T07:28:37Z</time>
      </trkpt>
      <trkpt lat="43.22655" lon="6.62728">
        <ele>73.6782227</ele>
        <time>2015-08-17T07:28:38Z</time>
      </trkpt>
      <trkpt lat="43.22647" lon="6.62704">
        <ele>75.6008301</ele>
        <time>2015-08-17T07:28:46Z</time>
      </trkpt>
      <trkpt lat="43.22645" lon="6.62691">
        <ele>77.5234375</ele>
        <time>2015-08-17T07:28:51Z</time>
      </trkpt>
      <trkpt lat="43.2265" lon="6.62677">
        <ele>80.4074707</ele>
        <time>2015-08-17T07:28:57Z</time>
      </trkpt>
      <trkpt lat="43.22659" lon="6.62667">
        <ele>82.3300781</ele>
        <time>2015-08-17T07:29:03Z</time>
      </trkpt>
      <trkpt lat="43.22669" lon="6.62658">
        <ele>82.3300781</ele>
        <time>2015-08-17T07:29:10Z</time>
      </trkpt>
      <trkpt lat="43.2268" lon="6.62643">
        <ele>83.7719727</ele>
        <time>2015-08-17T07:29:19Z</time>
      </trkpt>
      <trkpt lat="43.22695" lon="6.62631">
        <ele>83.7719727</ele>
        <time>2015-08-17T07:29:25Z</time>
      </trkpt>
      <trkpt lat="43.22715" lon="6.6262">
        <ele>85.2139893</ele>
        <time>2015-08-17T07:29:32Z</time>
      </trkpt>
      <trkpt lat="43.22738" lon="6.62609">
        <ele>86.175293</ele>
        <time>2015-08-17T07:29:40Z</time>
      </trkpt>
      <trkpt lat="43.22761" lon="6.62596">
        <ele>87.6171875</ele>
        <time>2015-08-17T07:29:48Z</time>
      </trkpt>
      <trkpt lat="43.22772" lon="6.62576">
        <ele>89.0593262</ele>
        <time>2015-08-17T07:29:54Z</time>
      </trkpt>
      <trkpt lat="43.22783" lon="6.62551">
        <ele>89.0593262</ele>
        <time>2015-08-17T07:30:01Z</time>
      </trkpt>
      <trkpt lat="43.22794" lon="6.6253">
        <ele>90.5013428</ele>
        <time>2015-08-17T07:30:07Z</time>
      </trkpt>
      <trkpt lat="43.22804" lon="6.62508">
        <ele>91.4625244</ele>
        <time>2015-08-17T07:30:13Z</time>
      </trkpt>
      <trkpt lat="43.22814" lon="6.62481">
        <ele>92.904541</ele>
        <time>2015-08-17T07:30:21Z</time>
      </trkpt>
      <trkpt lat="43.22825" lon="6.62456">
        <ele>92.904541</ele>
        <time>2015-08-17T07:30:29Z</time>
      </trkpt>
      <trkpt lat="43.22834" lon="6.6243">
        <ele>95.7884521</ele>
        <time>2015-08-17T07:30:37Z</time>
      </trkpt>
      <trkpt lat="43.22841" lon="6.62407">
        <ele>97.7111816</ele>
        <time>2015-08-17T07:30:45Z</time>
      </trkpt>
      <trkpt lat="43.22847" lon="6.62384">
        <ele>100.114502</ele>
        <time>2015-08-17T07:30:53Z</time>
      </trkpt>
      <trkpt lat="43.22851" lon="6.62364">
        <ele>102.5177002</ele>
        <time>2015-08-17T07:31:00Z</time>
      </trkpt>
      <trkpt lat="43.22854" lon="6.62342">
        <ele>103.9597168</ele>
        <time>2015-08-17T07:31:06Z</time>
      </trkpt>
      <trkpt lat="43.22856" lon="6.62318">
        <ele>103.4790039</ele>
        <time>2015-08-17T07:31:13Z</time>
      </trkpt>
      <trkpt lat="43.22857" lon="6.62294">
        <ele>105.8824463</ele>
        <time>2015-08-17T07:31:20Z</time>
      </trkpt>
      <trkpt lat="43.2286" lon="6.62278">
        <ele>106.8436279</ele>
        <time>2015-08-17T07:31:26Z</time>
      </trkpt>
      <trkpt lat="43.2286" lon="6.62269">
        <ele>106.8436279</ele>
        <time>2015-08-17T07:31:29Z</time>
      </trkpt>
      <trkpt lat="43.22862" lon="6.62266">
        <ele>106.3630371</ele>
        <time>2015-08-17T07:31:35Z</time>
      </trkpt>
      <trkpt lat="43.22861" lon="6.62268">
        <ele>111.1695557</ele>
        <time>2015-08-17T07:31:43Z</time>
      </trkpt>
      <trkpt lat="43.22862" lon="6.62267">
        <ele>114.5341797</ele>
        <time>2015-08-17T07:31:55Z</time>
      </trkpt>
      <trkpt lat="43.22864" lon="6.62267">
        <ele>120.7828369</ele>
        <time>2015-08-17T07:33:08Z</time>
      </trkpt>
      <trkpt lat="43.22867" lon="6.62266">
        <ele>115.9761963</ele>
        <time>2015-08-17T07:33:14Z</time>
      </trkpt>
      <trkpt lat="43.2286" lon="6.62264">
        <ele>122.2247314</ele>
        <time>2015-08-17T07:33:44Z</time>
      </trkpt>
      <trkpt lat="43.22869" lon="6.62262">
        <ele>118.8601074</ele>
        <time>2015-08-17T07:34:26Z</time>
      </trkpt>
      <trkpt lat="43.22871" lon="6.62264">
        <ele>111.6502686</ele>
        <time>2015-08-17T07:34:45Z</time>
      </trkpt>
      <trkpt lat="43.22884" lon="6.62263">
        <ele>108.7662354</ele>
        <time>2015-08-17T07:34:50Z</time>
      </trkpt>
      <trkpt lat="43.22897" lon="6.62272">
        <ele>103.9597168</ele>
        <time>2015-08-17T07:34:55Z</time>
      </trkpt>
      <trkpt lat="43.22912" lon="6.62288">
        <ele>102.998291</ele>
        <time>2015-08-17T07:35:01Z</time>
      </trkpt>
      <trkpt lat="43.22934" lon="6.62311">
        <ele>104.4404297</ele>
        <time>2015-08-17T07:35:10Z</time>
      </trkpt>
      <trkpt lat="43.22951" lon="6.62332">
        <ele>106.8436279</ele>
        <time>2015-08-17T07:35:18Z</time>
      </trkpt>
      <trkpt lat="43.22963" lon="6.62342">
        <ele>108.2856445</ele>
        <time>2015-08-17T07:35:23Z</time>
      </trkpt>
      <trkpt lat="43.22976" lon="6.62356">
        <ele>110.208252</ele>
        <time>2015-08-17T07:35:29Z</time>
      </trkpt>
      <trkpt lat="43.22991" lon="6.62379">
        <ele>109.7276611</ele>
        <time>2015-08-17T07:35:38Z</time>
      </trkpt>
      <trkpt lat="43.22998" lon="6.62403">
        <ele>110.6888428</ele>
        <time>2015-08-17T07:35:44Z</time>
      </trkpt>
      <trkpt lat="43.23006" lon="6.62427">
        <ele>112.1309814</ele>
        <time>2015-08-17T07:35:51Z</time>
      </trkpt>
      <trkpt lat="43.23025" lon="6.62459">
        <ele>113.0922852</ele>
        <time>2015-08-17T07:36:01Z</time>
      </trkpt>
      <trkpt lat="43.23038" lon="6.62475">
        <ele>113.0922852</ele>
        <time>2015-08-17T07:36:07Z</time>
      </trkpt>
      <trkpt lat="43.23051" lon="6.62482">
        <ele>112.1309814</ele>
        <time>2015-08-17T07:36:12Z</time>
      </trkpt>
      <trkpt lat="43.2307" lon="6.62486">
        <ele>113.0922852</ele>
        <time>2015-08-17T07:36:19Z</time>
      </trkpt>
      <trkpt lat="43.23092" lon="6.62484">
        <ele>114.5341797</ele>
        <time>2015-08-17T07:36:27Z</time>
      </trkpt>
      <trkpt lat="43.23112" lon="6.62479">
        <ele>115.9761963</ele>
        <time>2015-08-17T07:36:35Z</time>
      </trkpt>
      <trkpt lat="43.23133" lon="6.62475">
        <ele>117.8988037</ele>
        <time>2015-08-17T07:36:43Z</time>
      </trkpt>
      <trkpt lat="43.23151" lon="6.62474">
        <ele>117.4182129</ele>
        <time>2015-08-17T07:36:49Z</time>
      </trkpt>
      <trkpt lat="43.23177" lon="6.62471">
        <ele>116.9375</ele>
        <time>2015-08-17T07:36:56Z</time>
      </trkpt>
      <trkpt lat="43.23205" lon="6.62464">
        <ele>116.4567871</ele>
        <time>2015-08-17T07:37:03Z</time>
      </trkpt>
      <trkpt lat="43.23237" lon="6.6246">
        <ele>120.302124</ele>
        <time>2015-08-17T07:37:12Z</time>
      </trkpt>
      <trkpt lat="43.23259" lon="6.62459">
        <ele>122.7054443</ele>
        <time>2015-08-17T07:37:20Z</time>
      </trkpt>
      <trkpt lat="43.23283" lon="6.62459">
        <ele>123.666748</ele>
        <time>2015-08-17T07:37:28Z</time>
      </trkpt>
      <trkpt lat="43.23297" lon="6.6247">
        <ele>121.2635498</ele>
        <time>2015-08-17T07:37:34Z</time>
      </trkpt>
      <trkpt lat="43.23316" lon="6.62484">
        <ele>120.302124</ele>
        <time>2015-08-17T07:37:40Z</time>
      </trkpt>
      <trkpt lat="43.23334" lon="6.62497">
        <ele>120.302124</ele>
        <time>2015-08-17T07:37:46Z</time>
      </trkpt>
      <trkpt lat="43.23338" lon="6.62511">
        <ele>120.302124</ele>
        <time>2015-08-17T07:37:50Z</time>
      </trkpt>
      <trkpt lat="43.23334" lon="6.62536">
        <ele>120.7828369</ele>
        <time>2015-08-17T07:37:55Z</time>
      </trkpt>
      <trkpt lat="43.23333" lon="6.62558">
        <ele>120.7828369</ele>
        <time>2015-08-17T07:37:59Z</time>
      </trkpt>
      <trkpt lat="43.2334" lon="6.6257">
        <ele>120.7828369</ele>
        <time>2015-08-17T07:38:02Z</time>
      </trkpt>
      <trkpt lat="43.23357" lon="6.62587">
        <ele>122.2247314</ele>
        <time>2015-08-17T07:38:10Z</time>
      </trkpt>
      <trkpt lat="43.2337" lon="6.62602">
        <ele>122.2247314</ele>
        <time>2015-08-17T07:38:17Z</time>
      </trkpt>
      <trkpt lat="43.23382" lon="6.62607">
        <ele>121.2635498</ele>
        <time>2015-08-17T07:38:21Z</time>
      </trkpt>
      <trkpt lat="43.23394" lon="6.62599">
        <ele>121.7441406</ele>
        <time>2015-08-17T07:38:25Z</time>
      </trkpt>
      <trkpt lat="43.2341" lon="6.62577">
        <ele>121.2635498</ele>
        <time>2015-08-17T07:38:32Z</time>
      </trkpt>
      <trkpt lat="43.23422" lon="6.62557">
        <ele>121.2635498</ele>
        <time>2015-08-17T07:38:38Z</time>
      </trkpt>
      <trkpt lat="43.23432" lon="6.62547">
        <ele>121.7441406</ele>
        <time>2015-08-17T07:38:42Z</time>
      </trkpt>
      <trkpt lat="43.23451" lon="6.62538">
        <ele>123.1861572</ele>
        <time>2015-08-17T07:38:49Z</time>
      </trkpt>
      <trkpt lat="43.2347" lon="6.62546">
        <ele>124.1473389</ele>
        <time>2015-08-17T07:38:56Z</time>
      </trkpt>
      <trkpt lat="43.23485" lon="6.62547">
        <ele>124.1473389</ele>
        <time>2015-08-17T07:39:02Z</time>
      </trkpt>
      <trkpt lat="43.23502" lon="6.62533">
        <ele>125.5893555</ele>
        <time>2015-08-17T07:39:08Z</time>
      </trkpt>
      <trkpt lat="43.23514" lon="6.62518">
        <ele>127.0313721</ele>
        <time>2015-08-17T07:39:14Z</time>
      </trkpt>
      <trkpt lat="43.23528" lon="6.6251">
        <ele>128.9541016</ele>
        <time>2015-08-17T07:39:19Z</time>
      </trkpt>
      <trkpt lat="43.23548" lon="6.62493">
        <ele>131.3572998</ele>
        <time>2015-08-17T07:39:26Z</time>
      </trkpt>
      <trkpt lat="43.23569" lon="6.62473">
        <ele>131.3572998</ele>
        <time>2015-08-17T07:39:34Z</time>
      </trkpt>
      <trkpt lat="43.23581" lon="6.62456">
        <ele>132.3186035</ele>
        <time>2015-08-17T07:39:41Z</time>
      </trkpt>
      <trkpt lat="43.23591" lon="6.6244">
        <ele>130.3959961</ele>
        <time>2015-08-17T07:39:45Z</time>
      </trkpt>
      <trkpt lat="43.23614" lon="6.62406">
        <ele>126.0699463</ele>
        <time>2015-08-17T07:39:50Z</time>
      </trkpt>
      <trkpt lat="43.23623" lon="6.62392">
        <ele>124.6280518</ele>
        <time>2015-08-17T07:39:52Z</time>
      </trkpt>
      <trkpt lat="43.23652" lon="6.62373">
        <ele>122.2247314</ele>
        <time>2015-08-17T07:39:57Z</time>
      </trkpt>
      <trkpt lat="43.23667" lon="6.6237">
        <ele>121.7441406</ele>
        <time>2015-08-17T07:39:59Z</time>
      </trkpt>
      <trkpt lat="43.23697" lon="6.62353">
        <ele>120.302124</ele>
        <time>2015-08-17T07:40:03Z</time>
      </trkpt>
      <trkpt lat="43.23743" lon="6.62308">
        <ele>119.8214111</ele>
        <time>2015-08-17T07:40:10Z</time>
      </trkpt>
      <trkpt lat="43.23765" lon="6.62294">
        <ele>123.1861572</ele>
        <time>2015-08-17T07:40:14Z</time>
      </trkpt>
      <trkpt lat="43.23787" lon="6.62285">
        <ele>123.1861572</ele>
        <time>2015-08-17T07:40:19Z</time>
      </trkpt>
      <trkpt lat="43.2382" lon="6.62266">
        <ele>125.1087646</ele>
        <time>2015-08-17T07:40:26Z</time>
      </trkpt>
      <trkpt lat="43.23835" lon="6.6226">
        <ele>126.0699463</ele>
        <time>2015-08-17T07:40:30Z</time>
      </trkpt>
      <trkpt lat="43.23843" lon="6.62259">
        <ele>126.5506592</ele>
        <time>2015-08-17T07:40:32Z</time>
      </trkpt>
      <trkpt lat="43.23857" lon="6.62252">
        <ele>127.5119629</ele>
        <time>2015-08-17T07:40:36Z</time>
      </trkpt>
      <trkpt lat="43.23882" lon="6.6224">
        <ele>130.3959961</ele>
        <time>2015-08-17T07:40:44Z</time>
      </trkpt>
      <trkpt lat="43.23906" lon="6.62226">
        <ele>131.3572998</ele>
        <time>2015-08-17T07:40:51Z</time>
      </trkpt>
      <trkpt lat="43.23926" lon="6.6222">
        <ele>132.3186035</ele>
        <time>2015-08-17T07:40:57Z</time>
      </trkpt>
      <trkpt lat="43.23949" lon="6.62217">
        <ele>132.7993164</ele>
        <time>2015-08-17T07:41:04Z</time>
      </trkpt>
      <trkpt lat="43.23974" lon="6.62211">
        <ele>132.7993164</ele>
        <time>2015-08-17T07:41:12Z</time>
      </trkpt>
      <trkpt lat="43.24002" lon="6.62203">
        <ele>133.2799072</ele>
        <time>2015-08-17T07:41:21Z</time>
      </trkpt>
      <trkpt lat="43.24023" lon="6.62202">
        <ele>134.2412109</ele>
        <time>2015-08-17T07:41:28Z</time>
      </trkpt>
      <trkpt lat="43.24044" lon="6.6221">
        <ele>134.7219238</ele>
        <time>2015-08-17T07:41:34Z</time>
      </trkpt>
      <trkpt lat="43.24072" lon="6.62212">
        <ele>136.1639404</ele>
        <time>2015-08-17T07:41:42Z</time>
      </trkpt>
      <trkpt lat="43.24095" lon="6.62219">
        <ele>138.0865479</ele>
        <time>2015-08-17T07:41:49Z</time>
      </trkpt>
      <trkpt lat="43.24111" lon="6.62226">
        <ele>140.0091553</ele>
        <time>2015-08-17T07:41:55Z</time>
      </trkpt>
      <trkpt lat="43.24123" lon="6.62229">
        <ele>140.4898682</ele>
        <time>2015-08-17T07:42:02Z</time>
      </trkpt>
      <trkpt lat="43.2414" lon="6.62232">
        <ele>140.4898682</ele>
        <time>2015-08-17T07:42:09Z</time>
      </trkpt>
      <trkpt lat="43.24147" lon="6.62233">
        <ele>139.0478516</ele>
        <time>2015-08-17T07:42:14Z</time>
      </trkpt>
      <trkpt lat="43.24151" lon="6.62234">
        <ele>139.5284424</ele>
        <time>2015-08-17T07:42:21Z</time>
      </trkpt>
      <trkpt lat="43.24153" lon="6.62233">
        <ele>140.970459</ele>
        <time>2015-08-17T07:42:31Z</time>
      </trkpt>
      <trkpt lat="43.24152" lon="6.62233">
        <ele>143.3736572</ele>
        <time>2015-08-17T07:42:58Z</time>
      </trkpt>
      <trkpt lat="43.24157" lon="6.62235">
        <ele>141.9317627</ele>
        <time>2015-08-17T07:43:07Z</time>
      </trkpt>
      <trkpt lat="43.2416" lon="6.62234">
        <ele>137.1252441</ele>
        <time>2015-08-17T07:43:40Z</time>
      </trkpt>
      <trkpt lat="43.24161" lon="6.62234">
        <ele>136.6446533</ele>
        <time>2015-08-17T07:43:46Z</time>
      </trkpt>
      <trkpt lat="43.24161" lon="6.62233">
        <ele>136.6446533</ele>
        <time>2015-08-17T07:43:58Z</time>
      </trkpt>
      <trkpt lat="43.24161" lon="6.62233">
        <ele>135.6831055</ele>
        <time>2015-08-17T07:44:06Z</time>
      </trkpt>
      <trkpt lat="43.24164" lon="6.62236">
        <ele>137.605835</ele>
        <time>2015-08-17T07:44:14Z</time>
      </trkpt>
      <trkpt lat="43.24166" lon="6.62238">
        <ele>137.605835</ele>
        <time>2015-08-17T07:44:18Z</time>
      </trkpt>
      <trkpt lat="43.24171" lon="6.62241">
        <ele>138.5672607</ele>
        <time>2015-08-17T07:44:23Z</time>
      </trkpt>
      <trkpt lat="43.24187" lon="6.62248">
        <ele>138.0865479</ele>
        <time>2015-08-17T07:44:30Z</time>
      </trkpt>
      <trkpt lat="43.2421" lon="6.6226">
        <ele>138.5672607</ele>
        <time>2015-08-17T07:44:37Z</time>
      </trkpt>
      <trkpt lat="43.24232" lon="6.62266">
        <ele>140.4898682</ele>
        <time>2015-08-17T07:44:44Z</time>
      </trkpt>
      <trkpt lat="43.24245" lon="6.6227">
        <ele>139.0478516</ele>
        <time>2015-08-17T07:44:48Z</time>
      </trkpt>
      <trkpt lat="43.24273" lon="6.62287">
        <ele>137.1252441</ele>
        <time>2015-08-17T07:44:55Z</time>
      </trkpt>
      <trkpt lat="43.24302" lon="6.6231">
        <ele>134.7219238</ele>
        <time>2015-08-17T07:45:03Z</time>
      </trkpt>
      <trkpt lat="43.24306" lon="6.62312">
        <ele>134.7219238</ele>
        <time>2015-08-17T07:45:04Z</time>
      </trkpt>
      <trkpt lat="43.2433" lon="6.62321">
        <ele>135.6831055</ele>
        <time>2015-08-17T07:45:10Z</time>
      </trkpt>
      <trkpt lat="43.24365" lon="6.62334">
        <ele>133.2799072</ele>
        <time>2015-08-17T07:45:19Z</time>
      </trkpt>
      <trkpt lat="43.24391" lon="6.62344">
        <ele>131.8378906</ele>
        <time>2015-08-17T07:45:27Z</time>
      </trkpt>
      <trkpt lat="43.24416" lon="6.62355">
        <ele>129.9152832</ele>
        <time>2015-08-17T07:45:34Z</time>
      </trkpt>
      <trkpt lat="43.24447" lon="6.62374">
        <ele>131.3572998</ele>
        <time>2015-08-17T07:45:41Z</time>
      </trkpt>
      <trkpt lat="43.24451" lon="6.62376">
        <ele>131.3572998</ele>
        <time>2015-08-17T07:45:42Z</time>
      </trkpt>
      <trkpt lat="43.24488" lon="6.62389">
        <ele>130.3959961</ele>
        <time>2015-08-17T07:45:51Z</time>
      </trkpt>
      <trkpt lat="43.24518" lon="6.62408">
        <ele>132.7993164</ele>
        <time>2015-08-17T07:45:59Z</time>
      </trkpt>
      <trkpt lat="43.24522" lon="6.6241">
        <ele>133.2799072</ele>
        <time>2015-08-17T07:46:00Z</time>
      </trkpt>
      <trkpt lat="43.24539" lon="6.62426">
        <ele>133.760498</ele>
        <time>2015-08-17T07:46:05Z</time>
      </trkpt>
      <trkpt lat="43.24578" lon="6.62448">
        <ele>134.2412109</ele>
        <time>2015-08-17T07:46:13Z</time>
      </trkpt>
      <trkpt lat="43.24583" lon="6.6245">
        <ele>133.760498</ele>
        <time>2015-08-17T07:46:14Z</time>
      </trkpt>
      <trkpt lat="43.24594" lon="6.62453">
        <ele>133.2799072</ele>
        <time>2015-08-17T07:46:16Z</time>
      </trkpt>
      <trkpt lat="43.24636" lon="6.62453">
        <ele>133.760498</ele>
        <time>2015-08-17T07:46:24Z</time>
      </trkpt>
      <trkpt lat="43.24658" lon="6.62447">
        <ele>135.2025146</ele>
        <time>2015-08-17T07:46:29Z</time>
      </trkpt>
      <trkpt lat="43.24686" lon="6.62433">
        <ele>135.2025146</ele>
        <time>2015-08-17T07:46:36Z</time>
      </trkpt>
      <trkpt lat="43.24712" lon="6.62426">
        <ele>138.0865479</ele>
        <time>2015-08-17T07:46:44Z</time>
      </trkpt>
      <trkpt lat="43.24727" lon="6.62432">
        <ele>140.970459</ele>
        <time>2015-08-17T07:46:50Z</time>
      </trkpt>
      <trkpt lat="43.24738" lon="6.62447">
        <ele>142.4124756</ele>
        <time>2015-08-17T07:46:55Z</time>
      </trkpt>
      <trkpt lat="43.24751" lon="6.62469">
        <ele>146.7384033</ele>
        <time>2015-08-17T07:47:03Z</time>
      </trkpt>
      <trkpt lat="43.24767" lon="6.62485">
        <ele>150.1030273</ele>
        <time>2015-08-17T07:47:09Z</time>
      </trkpt>
      <trkpt lat="43.2479" lon="6.62501">
        <ele>151.064209</ele>
        <time>2015-08-17T07:47:16Z</time>
      </trkpt>
      <trkpt lat="43.24812" lon="6.62502">
        <ele>151.064209</ele>
        <time>2015-08-17T07:47:21Z</time>
      </trkpt>
      <trkpt lat="43.24842" lon="6.62492">
        <ele>151.5449219</ele>
        <time>2015-08-17T07:47:28Z</time>
      </trkpt>
      <trkpt lat="43.24847" lon="6.6249">
        <ele>151.5449219</ele>
        <time>2015-08-17T07:47:29Z</time>
      </trkpt>
      <trkpt lat="43.24867" lon="6.62482">
        <ele>152.0257568</ele>
        <time>2015-08-17T07:47:33Z</time>
      </trkpt>
      <trkpt lat="43.24906" lon="6.62475">
        <ele>149.1416016</ele>
        <time>2015-08-17T07:47:41Z</time>
      </trkpt>
      <trkpt lat="43.24936" lon="6.62471">
        <ele>148.6610107</ele>
        <time>2015-08-17T07:47:47Z</time>
      </trkpt>
      <trkpt lat="43.24942" lon="6.6247">
        <ele>148.1804199</ele>
        <time>2015-08-17T07:47:48Z</time>
      </trkpt>
      <trkpt lat="43.24978" lon="6.62483">
        <ele>147.2189941</ele>
        <time>2015-08-17T07:47:54Z</time>
      </trkpt>
      <trkpt lat="43.25008" lon="6.62502">
        <ele>149.6223145</ele>
        <time>2015-08-17T07:47:59Z</time>
      </trkpt>
      <trkpt lat="43.25017" lon="6.62512">
        <ele>150.5836182</ele>
        <time>2015-08-17T07:48:01Z</time>
      </trkpt>
      <trkpt lat="43.25034" lon="6.62524">
        <ele>154.9095459</ele>
        <time>2015-08-17T07:48:05Z</time>
      </trkpt>
      <trkpt lat="43.25044" lon="6.62533">
        <ele>157.3128662</ele>
        <time>2015-08-17T07:48:11Z</time>
      </trkpt>
      <trkpt lat="43.25055" lon="6.62543">
        <ele>157.7935791</ele>
        <time>2015-08-17T07:48:17Z</time>
      </trkpt>
      <trkpt lat="43.25068" lon="6.62553">
        <ele>159.7161865</ele>
        <time>2015-08-17T07:48:23Z</time>
      </trkpt>
      <trkpt lat="43.25075" lon="6.62561">
        <ele>160.1968994</ele>
        <time>2015-08-17T07:48:28Z</time>
      </trkpt>
      <trkpt lat="43.25076" lon="6.62561">
        <ele>161.1582031</ele>
        <time>2015-08-17T07:48:41Z</time>
      </trkpt>
      <trkpt lat="43.2508" lon="6.62561">
        <ele>160.1968994</ele>
        <time>2015-08-17T07:48:46Z</time>
      </trkpt>
      <trkpt lat="43.25082" lon="6.6256">
        <ele>160.1968994</ele>
        <time>2015-08-17T07:48:47Z</time>
      </trkpt>
      <trkpt lat="43.25092" lon="6.62559">
        <ele>160.6774902</ele>
        <time>2015-08-17T07:48:53Z</time>
      </trkpt>
      <trkpt lat="43.25094" lon="6.62559">
        <ele>161.1582031</ele>
        <time>2015-08-17T07:48:54Z</time>
      </trkpt>
      <trkpt lat="43.25106" lon="6.62551">
        <ele>164.5227051</ele>
        <time>2015-08-17T07:49:02Z</time>
      </trkpt>
      <trkpt lat="43.25117" lon="6.62541">
        <ele>165.9647217</ele>
        <time>2015-08-17T07:49:09Z</time>
      </trkpt>
      <trkpt lat="43.25128" lon="6.62529">
        <ele>167.8873291</ele>
        <time>2015-08-17T07:49:16Z</time>
      </trkpt>
      <trkpt lat="43.2514" lon="6.62515">
        <ele>168.368042</ele>
        <time>2015-08-17T07:49:22Z</time>
      </trkpt>
      <trkpt lat="43.25152" lon="6.62501">
        <ele>167.8873291</ele>
        <time>2015-08-17T07:49:28Z</time>
      </trkpt>
      <trkpt lat="43.25164" lon="6.62485">
        <ele>167.4067383</ele>
        <time>2015-08-17T07:49:35Z</time>
      </trkpt>
      <trkpt lat="43.25165" lon="6.62484">
        <ele>167.4067383</ele>
        <time>2015-08-17T07:49:36Z</time>
      </trkpt>
      <trkpt lat="43.25173" lon="6.62488">
        <ele>166.9260254</ele>
        <time>2015-08-17T07:49:41Z</time>
      </trkpt>
      <trkpt lat="43.25174" lon="6.6249">
        <ele>166.4453125</ele>
        <time>2015-08-17T07:49:48Z</time>
      </trkpt>
      <trkpt lat="43.25173" lon="6.6249">
        <ele>166.4453125</ele>
        <time>2015-08-17T07:49:54Z</time>
      </trkpt>
      <trkpt lat="43.25175" lon="6.6249">
        <ele>166.9260254</ele>
        <time>2015-08-17T07:50:01Z</time>
      </trkpt>
      <trkpt lat="43.25177" lon="6.62487">
        <ele>169.3294678</ele>
        <time>2015-08-17T07:50:08Z</time>
      </trkpt>
      <trkpt lat="43.25177" lon="6.62489">
        <ele>169.3294678</ele>
        <time>2015-08-17T07:50:16Z</time>
      </trkpt>
      <trkpt lat="43.25179" lon="6.62489">
        <ele>167.4067383</ele>
        <time>2015-08-17T07:50:22Z</time>
      </trkpt>
      <trkpt lat="43.2518" lon="6.6249">
        <ele>164.0421143</ele>
        <time>2015-08-17T07:50:28Z</time>
      </trkpt>
      <trkpt lat="43.2518" lon="6.6249">
        <ele>164.0421143</ele>
        <time>2015-08-17T07:50:37Z</time>
      </trkpt>
      <trkpt lat="43.25181" lon="6.62493">
        <ele>168.8487549</ele>
        <time>2015-08-17T07:50:45Z</time>
      </trkpt>
      <trkpt lat="43.25182" lon="6.62493">
        <ele>169.3294678</ele>
        <time>2015-08-17T07:50:51Z</time>
      </trkpt>
      <trkpt lat="43.25184" lon="6.62497">
        <ele>169.8100586</ele>
        <time>2015-08-17T07:50:56Z</time>
      </trkpt>
      <trkpt lat="43.25178" lon="6.62499">
        <ele>184.7105713</ele>
        <time>2015-08-17T07:51:15Z</time>
      </trkpt>
      <trkpt lat="43.25176" lon="6.62495">
        <ele>179.4232178</ele>
        <time>2015-08-17T07:51:21Z</time>
      </trkpt>
      <trkpt lat="43.25175" lon="6.62492">
        <ele>177.9812012</ele>
        <time>2015-08-17T07:51:26Z</time>
      </trkpt>
      <trkpt lat="43.25172" lon="6.62491">
        <ele>174.6165771</ele>
        <time>2015-08-17T07:51:31Z</time>
      </trkpt>
      <trkpt lat="43.25172" lon="6.62492">
        <ele>165.4841309</ele>
        <time>2015-08-17T07:52:07Z</time>
      </trkpt>
      <trkpt lat="43.2517" lon="6.62487">
        <ele>165.4841309</ele>
        <time>2015-08-17T07:52:15Z</time>
      </trkpt>
      <trkpt lat="43.2517" lon="6.6248">
        <ele>165.003418</ele>
        <time>2015-08-17T07:52:20Z</time>
      </trkpt>
      <trkpt lat="43.25171" lon="6.62475">
        <ele>165.4841309</ele>
        <time>2015-08-17T07:52:24Z</time>
      </trkpt>
      <trkpt lat="43.2517" lon="6.62467">
        <ele>165.4841309</ele>
        <time>2015-08-17T07:52:31Z</time>
      </trkpt>
      <trkpt lat="43.25173" lon="6.62464">
        <ele>164.5227051</ele>
        <time>2015-08-17T07:52:40Z</time>
      </trkpt>
      <trkpt lat="43.25174" lon="6.62462">
        <ele>169.8100586</ele>
        <time>2015-08-17T07:53:01Z</time>
      </trkpt>
      <trkpt lat="43.25174" lon="6.62461">
        <ele>163.0808105</ele>
        <time>2015-08-17T07:53:11Z</time>
      </trkpt>
      <trkpt lat="43.25174" lon="6.62461">
        <ele>169.8100586</ele>
        <time>2015-08-17T07:53:23Z</time>
      </trkpt>
      <trkpt lat="43.25176" lon="6.62457">
        <ele>173.1746826</ele>
        <time>2015-08-17T07:53:33Z</time>
      </trkpt>
      <trkpt lat="43.25181" lon="6.62444">
        <ele>170.7713623</ele>
        <time>2015-08-17T07:53:37Z</time>
      </trkpt>
      <trkpt lat="43.25191" lon="6.62417">
        <ele>168.368042</ele>
        <time>2015-08-17T07:53:43Z</time>
      </trkpt>
      <trkpt lat="43.25201" lon="6.62389">
        <ele>168.368042</ele>
        <time>2015-08-17T07:53:50Z</time>
      </trkpt>
      <trkpt lat="43.25215" lon="6.6237">
        <ele>168.368042</ele>
        <time>2015-08-17T07:53:57Z</time>
      </trkpt>
      <trkpt lat="43.25231" lon="6.62357">
        <ele>167.4067383</ele>
        <time>2015-08-17T07:54:02Z</time>
      </trkpt>
      <trkpt lat="43.25249" lon="6.6235">
        <ele>166.4453125</ele>
        <time>2015-08-17T07:54:07Z</time>
      </trkpt>
      <trkpt lat="43.25264" lon="6.62342">
        <ele>163.5615234</ele>
        <time>2015-08-17T07:54:11Z</time>
      </trkpt>
      <trkpt lat="43.2527" lon="6.62339">
        <ele>162.6000977</ele>
        <time>2015-08-17T07:54:12Z</time>
      </trkpt>
      <trkpt lat="43.25292" lon="6.62324">
        <ele>159.7161865</ele>
        <time>2015-08-17T07:54:17Z</time>
      </trkpt>
      <trkpt lat="43.253" lon="6.62309">
        <ele>157.3128662</ele>
        <time>2015-08-17T07:54:21Z</time>
      </trkpt>
      <trkpt lat="43.25307" lon="6.62297">
        <ele>155.8709717</ele>
        <time>2015-08-17T07:54:24Z</time>
      </trkpt>
      <trkpt lat="43.2532" lon="6.62272">
        <ele>152.9869385</ele>
        <time>2015-08-17T07:54:30Z</time>
      </trkpt>
      <trkpt lat="43.25323" lon="6.62254">
        <ele>149.1416016</ele>
        <time>2015-08-17T07:54:34Z</time>
      </trkpt>
      <trkpt lat="43.25321" lon="6.62232">
        <ele>143.8543701</ele>
        <time>2015-08-17T07:54:38Z</time>
      </trkpt>
      <trkpt lat="43.25314" lon="6.62212">
        <ele>140.0091553</ele>
        <time>2015-08-17T07:54:43Z</time>
      </trkpt>
      <trkpt lat="43.2531" lon="6.62198">
        <ele>137.605835</ele>
        <time>2015-08-17T07:54:45Z</time>
      </trkpt>
      <trkpt lat="43.253" lon="6.62141">
        <ele>131.8378906</ele>
        <time>2015-08-17T07:54:50Z</time>
      </trkpt>
      <trkpt lat="43.25287" lon="6.62088">
        <ele>127.9925537</ele>
        <time>2015-08-17T07:54:55Z</time>
      </trkpt>
      <trkpt lat="43.25285" lon="6.62077">
        <ele>127.5119629</ele>
        <time>2015-08-17T07:54:56Z</time>
      </trkpt>
      <trkpt lat="43.25278" lon="6.62044">
        <ele>122.2247314</ele>
        <time>2015-08-17T07:55:00Z</time>
      </trkpt>
      <trkpt lat="43.25278" lon="6.62029">
        <ele>121.2635498</ele>
        <time>2015-08-17T07:55:04Z</time>
      </trkpt>
      <trkpt lat="43.2528" lon="6.6203">
        <ele>122.2247314</ele>
        <time>2015-08-17T07:55:09Z</time>
      </trkpt>
      <trkpt lat="43.25276" lon="6.62034">
        <ele>120.7828369</ele>
        <time>2015-08-17T07:55:14Z</time>
      </trkpt>
      <trkpt lat="43.25272" lon="6.6204">
        <ele>124.6280518</ele>
        <time>2015-08-17T07:55:20Z</time>
      </trkpt>
      <trkpt lat="43.25272" lon="6.62041">
        <ele>125.5893555</ele>
        <time>2015-08-17T07:55:27Z</time>
      </trkpt>
      <trkpt lat="43.25271" lon="6.62041">
        <ele>134.2412109</ele>
        <time>2015-08-17T07:55:55Z</time>
      </trkpt>
      <trkpt lat="43.25269" lon="6.62042">
        <ele>135.2025146</ele>
        <time>2015-08-17T07:56:01Z</time>
      </trkpt>
      <trkpt lat="43.25254" lon="6.62047">
        <ele>131.3572998</ele>
        <time>2015-08-17T07:56:06Z</time>
      </trkpt>
      <trkpt lat="43.2524" lon="6.62057">
        <ele>129.4346924</ele>
        <time>2015-08-17T07:56:10Z</time>
      </trkpt>
      <trkpt lat="43.2523" lon="6.62069">
        <ele>127.9925537</ele>
        <time>2015-08-17T07:56:13Z</time>
      </trkpt>
      <trkpt lat="43.25216" lon="6.62079">
        <ele>125.5893555</ele>
        <time>2015-08-17T07:56:18Z</time>
      </trkpt>
      <trkpt lat="43.25204" lon="6.62084">
        <ele>123.1861572</ele>
        <time>2015-08-17T07:56:22Z</time>
      </trkpt>
      <trkpt lat="43.25187" lon="6.62088">
        <ele>121.2635498</ele>
        <time>2015-08-17T07:56:26Z</time>
      </trkpt>
      <trkpt lat="43.25165" lon="6.62088">
        <ele>120.302124</ele>
        <time>2015-08-17T07:56:30Z</time>
      </trkpt>
      <trkpt lat="43.25154" lon="6.62087">
        <ele>119.8214111</ele>
        <time>2015-08-17T07:56:32Z</time>
      </trkpt>
      <trkpt lat="43.2514" lon="6.62088">
        <ele>116.9375</ele>
        <time>2015-08-17T07:56:36Z</time>
      </trkpt>
      <trkpt lat="43.25122" lon="6.62088">
        <ele>115.9761963</ele>
        <time>2015-08-17T07:56:41Z</time>
      </trkpt>
      <trkpt lat="43.25109" lon="6.62094">
        <ele>114.0535889</ele>
        <time>2015-08-17T07:56:46Z</time>
      </trkpt>
      <trkpt lat="43.25093" lon="6.62103">
        <ele>114.5341797</ele>
        <time>2015-08-17T07:56:52Z</time>
      </trkpt>
      <trkpt lat="43.25079" lon="6.62105">
        <ele>113.0922852</ele>
        <time>2015-08-17T07:56:56Z</time>
      </trkpt>
      <trkpt lat="43.25063" lon="6.62093">
        <ele>113.0922852</ele>
        <time>2015-08-17T07:57:00Z</time>
      </trkpt>
      <trkpt lat="43.25051" lon="6.62084">
        <ele>113.0922852</ele>
        <time>2015-08-17T07:57:03Z</time>
      </trkpt>
      <trkpt lat="43.2504" lon="6.62072">
        <ele>113.0922852</ele>
        <time>2015-08-17T07:57:06Z</time>
      </trkpt>
      <trkpt lat="43.25028" lon="6.62053">
        <ele>112.6115723</ele>
        <time>2015-08-17T07:57:10Z</time>
      </trkpt>
      <trkpt lat="43.25021" lon="6.62025">
        <ele>110.6888428</ele>
        <time>2015-08-17T07:57:16Z</time>
      </trkpt>
      <trkpt lat="43.25016" lon="6.6202">
        <ele>110.6888428</ele>
        <time>2015-08-17T07:57:19Z</time>
      </trkpt>
      <trkpt lat="43.25013" lon="6.62017">
        <ele>109.2469482</ele>
        <time>2015-08-17T07:57:23Z</time>
      </trkpt>
      <trkpt lat="43.25012" lon="6.62016">
        <ele>108.7662354</ele>
        <time>2015-08-17T07:57:31Z</time>
      </trkpt>
      <trkpt lat="43.25007" lon="6.62011">
        <ele>105.8824463</ele>
        <time>2015-08-17T07:57:36Z</time>
      </trkpt>
      <trkpt lat="43.25006" lon="6.6201">
        <ele>105.4017334</ele>
        <time>2015-08-17T07:57:37Z</time>
      </trkpt>
      <trkpt lat="43.24995" lon="6.62003">
        <ele>104.9210205</ele>
        <time>2015-08-17T07:57:42Z</time>
      </trkpt>
      <trkpt lat="43.24985" lon="6.61989">
        <ele>102.0371094</ele>
        <time>2015-08-17T07:57:46Z</time>
      </trkpt>
      <trkpt lat="43.24973" lon="6.61977">
        <ele>99.1530762</ele>
        <time>2015-08-17T07:57:50Z</time>
      </trkpt>
      <trkpt lat="43.24962" lon="6.61963">
        <ele>101.0756836</ele>
        <time>2015-08-17T07:57:54Z</time>
      </trkpt>
      <trkpt lat="43.24945" lon="6.61959">
        <ele>99.6337891</ele>
        <time>2015-08-17T07:57:59Z</time>
      </trkpt>
      <trkpt lat="43.24933" lon="6.6197">
        <ele>98.1918945</ele>
        <time>2015-08-17T07:58:02Z</time>
      </trkpt>
      <trkpt lat="43.24913" lon="6.61968">
        <ele>96.2692871</ele>
        <time>2015-08-17T07:58:06Z</time>
      </trkpt>
      <trkpt lat="43.24902" lon="6.61953">
        <ele>94.8271484</ele>
        <time>2015-08-17T07:58:09Z</time>
      </trkpt>
      <trkpt lat="43.24889" lon="6.6194">
        <ele>93.8658447</ele>
        <time>2015-08-17T07:58:12Z</time>
      </trkpt>
      <trkpt lat="43.24873" lon="6.61923">
        <ele>92.904541</ele>
        <time>2015-08-17T07:58:16Z</time>
      </trkpt>
      <trkpt lat="43.24863" lon="6.61934">
        <ele>90.9819336</ele>
        <time>2015-08-17T07:58:19Z</time>
      </trkpt>
      <trkpt lat="43.24863" lon="6.61954">
        <ele>89.0593262</ele>
        <time>2015-08-17T07:58:22Z</time>
      </trkpt>
      <trkpt lat="43.24864" lon="6.61961">
        <ele>88.0980225</ele>
        <time>2015-08-17T07:58:23Z</time>
      </trkpt>
      <trkpt lat="43.24867" lon="6.6199">
        <ele>86.6560059</ele>
        <time>2015-08-17T07:58:28Z</time>
      </trkpt>
      <trkpt lat="43.24872" lon="6.62015">
        <ele>87.1365967</ele>
        <time>2015-08-17T07:58:32Z</time>
      </trkpt>
      <trkpt lat="43.24873" lon="6.62039">
        <ele>86.6560059</ele>
        <time>2015-08-17T07:58:36Z</time>
      </trkpt>
      <trkpt lat="43.24871" lon="6.62056">
        <ele>89.0593262</ele>
        <time>2015-08-17T07:58:39Z</time>
      </trkpt>
      <trkpt lat="43.24861" lon="6.62073">
        <ele>90.0206299</ele>
        <time>2015-08-17T07:58:44Z</time>
      </trkpt>
      <trkpt lat="43.24849" lon="6.62064">
        <ele>90.0206299</ele>
        <time>2015-08-17T07:58:48Z</time>
      </trkpt>
      <trkpt lat="43.24832" lon="6.62048">
        <ele>88.0980225</ele>
        <time>2015-08-17T07:58:53Z</time>
      </trkpt>
      <trkpt lat="43.24823" lon="6.62043">
        <ele>87.1365967</ele>
        <time>2015-08-17T07:58:55Z</time>
      </trkpt>
      <trkpt lat="43.24811" lon="6.6204">
        <ele>85.6945801</ele>
        <time>2015-08-17T07:58:58Z</time>
      </trkpt>
      <trkpt lat="43.248" lon="6.6204">
        <ele>83.7719727</ele>
        <time>2015-08-17T07:59:01Z</time>
      </trkpt>
      <trkpt lat="43.24777" lon="6.62055">
        <ele>81.3687744</ele>
        <time>2015-08-17T07:59:08Z</time>
      </trkpt>
      <trkpt lat="43.24762" lon="6.62071">
        <ele>81.8493652</ele>
        <time>2015-08-17T07:59:11Z</time>
      </trkpt>
      <trkpt lat="43.24752" lon="6.62091">
        <ele>82.810791</ele>
        <time>2015-08-17T07:59:14Z</time>
      </trkpt>
      <trkpt lat="43.24743" lon="6.62106">
        <ele>83.7719727</ele>
        <time>2015-08-17T07:59:17Z</time>
      </trkpt>
      <trkpt lat="43.24736" lon="6.62099">
        <ele>81.3687744</ele>
        <time>2015-08-17T07:59:22Z</time>
      </trkpt>
      <trkpt lat="43.24737" lon="6.62089">
        <ele>80.8881836</ele>
        <time>2015-08-17T07:59:24Z</time>
      </trkpt>
      <trkpt lat="43.24734" lon="6.62052">
        <ele>81.8493652</ele>
        <time>2015-08-17T07:59:29Z</time>
      </trkpt>
      <trkpt lat="43.24733" lon="6.62036">
        <ele>84.7333984</ele>
        <time>2015-08-17T07:59:31Z</time>
      </trkpt>
      <trkpt lat="43.24724" lon="6.62017">
        <ele>90.5013428</ele>
        <time>2015-08-17T07:59:36Z</time>
      </trkpt>
      <trkpt lat="43.24707" lon="6.62003">
        <ele>93.8658447</ele>
        <time>2015-08-17T07:59:44Z</time>
      </trkpt>
      <trkpt lat="43.24696" lon="6.61997">
        <ele>93.8658447</ele>
        <time>2015-08-17T07:59:49Z</time>
      </trkpt>
      <trkpt lat="43.24684" lon="6.62001">
        <ele>93.8658447</ele>
        <time>2015-08-17T07:59:54Z</time>
      </trkpt>
      <trkpt lat="43.24672" lon="6.62011">
        <ele>94.8271484</ele>
        <time>2015-08-17T07:59:58Z</time>
      </trkpt>
      <trkpt lat="43.2466" lon="6.62023">
        <ele>95.7884521</ele>
        <time>2015-08-17T08:00:02Z</time>
      </trkpt>
      <trkpt lat="43.24644" lon="6.62047">
        <ele>98.6724854</ele>
        <time>2015-08-17T08:00:08Z</time>
      </trkpt>
      <trkpt lat="43.2464" lon="6.62049">
        <ele>98.1918945</ele>
        <time>2015-08-17T08:00:09Z</time>
      </trkpt>
      <trkpt lat="43.24628" lon="6.62037">
        <ele>97.2304688</ele>
        <time>2015-08-17T08:00:13Z</time>
      </trkpt>
      <trkpt lat="43.24625" lon="6.62023">
        <ele>94.8271484</ele>
        <time>2015-08-17T08:00:16Z</time>
      </trkpt>
      <trkpt lat="43.24618" lon="6.61991">
        <ele>92.4239502</ele>
        <time>2015-08-17T08:00:22Z</time>
      </trkpt>
      <trkpt lat="43.24616" lon="6.61986">
        <ele>91.4625244</ele>
        <time>2015-08-17T08:00:26Z</time>
      </trkpt>
      <trkpt lat="43.24614" lon="6.61985">
        <ele>101.5563965</ele>
        <time>2015-08-17T08:00:31Z</time>
      </trkpt>
      <trkpt lat="43.24612" lon="6.61984">
        <ele>105.8824463</ele>
        <time>2015-08-17T08:00:37Z</time>
      </trkpt>
      <trkpt lat="43.2461" lon="6.61984">
        <ele>100.5950928</ele>
        <time>2015-08-17T08:00:56Z</time>
      </trkpt>
      <trkpt lat="43.24611" lon="6.61984">
        <ele>95.7884521</ele>
        <time>2015-08-17T08:01:02Z</time>
      </trkpt>
      <trkpt lat="43.24611" lon="6.61981">
        <ele>100.5950928</ele>
        <time>2015-08-17T08:02:12Z</time>
      </trkpt>
      <trkpt lat="43.24612" lon="6.61983">
        <ele>105.4017334</ele>
        <time>2015-08-17T08:03:19Z</time>
      </trkpt>
      <trkpt lat="43.2461" lon="6.61982">
        <ele>92.904541</ele>
        <time>2015-08-17T08:03:58Z</time>
      </trkpt>
      <trkpt lat="43.24617" lon="6.61978">
        <ele>92.4239502</ele>
        <time>2015-08-17T08:04:37Z</time>
      </trkpt>
      <trkpt lat="43.24616" lon="6.6198">
        <ele>93.8658447</ele>
        <time>2015-08-17T08:04:45Z</time>
      </trkpt>
      <trkpt lat="43.24613" lon="6.61979">
        <ele>97.2304688</ele>
        <time>2015-08-17T08:05:01Z</time>
      </trkpt>
      <trkpt lat="43.2461" lon="6.61983">
        <ele>100.5950928</ele>
        <time>2015-08-17T08:05:08Z</time>
      </trkpt>
      <trkpt lat="43.24609" lon="6.61987">
        <ele>99.6337891</ele>
        <time>2015-08-17T08:05:11Z</time>
      </trkpt>
      <trkpt lat="43.24608" lon="6.61996">
        <ele>97.2304688</ele>
        <time>2015-08-17T08:05:15Z</time>
      </trkpt>
      <trkpt lat="43.24608" lon="6.62013">
        <ele>95.7884521</ele>
        <time>2015-08-17T08:05:24Z</time>
      </trkpt>
      <trkpt lat="43.24605" lon="6.6203">
        <ele>93.8658447</ele>
        <time>2015-08-17T08:05:32Z</time>
      </trkpt>
      <trkpt lat="43.24599" lon="6.6204">
        <ele>93.8658447</ele>
        <time>2015-08-17T08:05:38Z</time>
      </trkpt>
      <trkpt lat="43.24591" lon="6.62048">
        <ele>94.3465576</ele>
        <time>2015-08-17T08:05:46Z</time>
      </trkpt>
      <trkpt lat="43.24586" lon="6.62051">
        <ele>95.3077393</ele>
        <time>2015-08-17T08:05:50Z</time>
      </trkpt>
      <trkpt lat="43.24572" lon="6.62053">
        <ele>96.7498779</ele>
        <time>2015-08-17T08:05:59Z</time>
      </trkpt>
      <trkpt lat="43.2456" lon="6.62055">
        <ele>96.2692871</ele>
        <time>2015-08-17T08:06:07Z</time>
      </trkpt>
      <trkpt lat="43.24545" lon="6.62057">
        <ele>99.6337891</ele>
        <time>2015-08-17T08:06:17Z</time>
      </trkpt>
      <trkpt lat="43.24533" lon="6.62058">
        <ele>100.114502</ele>
        <time>2015-08-17T08:06:25Z</time>
      </trkpt>
      <trkpt lat="43.24524" lon="6.62062">
        <ele>99.6337891</ele>
        <time>2015-08-17T08:06:31Z</time>
      </trkpt>
      <trkpt lat="43.24516" lon="6.62066">
        <ele>99.6337891</ele>
        <time>2015-08-17T08:06:39Z</time>
      </trkpt>
      <trkpt lat="43.24512" lon="6.62068">
        <ele>104.9210205</ele>
        <time>2015-08-17T08:06:46Z</time>
      </trkpt>
      <trkpt lat="43.24504" lon="6.62074">
        <ele>103.4790039</ele>
        <time>2015-08-17T08:06:52Z</time>
      </trkpt>
      <trkpt lat="43.24496" lon="6.62082">
        <ele>102.998291</ele>
        <time>2015-08-17T08:06:57Z</time>
      </trkpt>
      <trkpt lat="43.24487" lon="6.62101">
        <ele>106.3630371</ele>
        <time>2015-08-17T08:07:03Z</time>
      </trkpt>
      <trkpt lat="43.24488" lon="6.62119">
        <ele>110.208252</ele>
        <time>2015-08-17T08:07:09Z</time>
      </trkpt>
      <trkpt lat="43.24492" lon="6.62134">
        <ele>113.572998</ele>
        <time>2015-08-17T08:07:16Z</time>
      </trkpt>
      <trkpt lat="43.24494" lon="6.62152">
        <ele>115.0148926</ele>
        <time>2015-08-17T08:07:23Z</time>
      </trkpt>
      <trkpt lat="43.24492" lon="6.62173">
        <ele>117.8988037</ele>
        <time>2015-08-17T08:07:31Z</time>
      </trkpt>
      <trkpt lat="43.2449" lon="6.62193">
        <ele>121.2635498</ele>
        <time>2015-08-17T08:07:39Z</time>
      </trkpt>
      <trkpt lat="43.24489" lon="6.62201">
        <ele>123.1861572</ele>
        <time>2015-08-17T08:07:45Z</time>
      </trkpt>
      <trkpt lat="43.24489" lon="6.62208">
        <ele>124.6280518</ele>
        <time>2015-08-17T08:07:50Z</time>
      </trkpt>
      <trkpt lat="43.24488" lon="6.62217">
        <ele>126.0699463</ele>
        <time>2015-08-17T08:07:55Z</time>
      </trkpt>
      <trkpt lat="43.24486" lon="6.62227">
        <ele>126.0699463</ele>
        <time>2015-08-17T08:08:02Z</time>
      </trkpt>
      <trkpt lat="43.24485" lon="6.62231">
        <ele>125.5893555</ele>
        <time>2015-08-17T08:08:05Z</time>
      </trkpt>
      <trkpt lat="43.24484" lon="6.62242">
        <ele>125.5893555</ele>
        <time>2015-08-17T08:08:09Z</time>
      </trkpt>
      <trkpt lat="43.24482" lon="6.62262">
        <ele>126.5506592</ele>
        <time>2015-08-17T08:08:15Z</time>
      </trkpt>
      <trkpt lat="43.24479" lon="6.62286">
        <ele>129.4346924</ele>
        <time>2015-08-17T08:08:22Z</time>
      </trkpt>
      <trkpt lat="43.24476" lon="6.62304">
        <ele>133.760498</ele>
        <time>2015-08-17T08:08:27Z</time>
      </trkpt>
      <trkpt lat="43.24472" lon="6.62325">
        <ele>137.1252441</ele>
        <time>2015-08-17T08:08:33Z</time>
      </trkpt>
      <trkpt lat="43.24469" lon="6.62344">
        <ele>138.5672607</ele>
        <time>2015-08-17T08:08:39Z</time>
      </trkpt>
      <trkpt lat="43.24467" lon="6.62368">
        <ele>137.605835</ele>
        <time>2015-08-17T08:08:47Z</time>
      </trkpt>
      <trkpt lat="43.24462" lon="6.62378">
        <ele>135.6831055</ele>
        <time>2015-08-17T08:08:53Z</time>
      </trkpt>
      <trkpt lat="43.24456" lon="6.62381">
        <ele>135.2025146</ele>
        <time>2015-08-17T08:08:59Z</time>
      </trkpt>
      <trkpt lat="43.24456" lon="6.62381">
        <ele>136.6446533</ele>
        <time>2015-08-17T08:09:05Z</time>
      </trkpt>
      <trkpt lat="43.24457" lon="6.62381">
        <ele>140.4898682</ele>
        <time>2015-08-17T08:09:22Z</time>
      </trkpt>
      <trkpt lat="43.24456" lon="6.62383">
        <ele>143.8543701</ele>
        <time>2015-08-17T08:10:14Z</time>
      </trkpt>
      <trkpt lat="43.24454" lon="6.62384">
        <ele>145.7770996</ele>
        <time>2015-08-17T08:10:31Z</time>
      </trkpt>
      <trkpt lat="43.24454" lon="6.62383">
        <ele>140.0091553</ele>
        <time>2015-08-17T08:10:44Z</time>
      </trkpt>
      <trkpt lat="43.24455" lon="6.62378">
        <ele>128.4733887</ele>
        <time>2015-08-17T08:11:45Z</time>
      </trkpt>
      <trkpt lat="43.24456" lon="6.62378">
        <ele>130.876709</ele>
        <time>2015-08-17T08:12:06Z</time>
      </trkpt>
      <trkpt lat="43.2445" lon="6.62375">
        <ele>131.8378906</ele>
        <time>2015-08-17T08:12:12Z</time>
      </trkpt>
      <trkpt lat="43.24436" lon="6.62365">
        <ele>132.3186035</ele>
        <time>2015-08-17T08:12:19Z</time>
      </trkpt>
      <trkpt lat="43.24417" lon="6.62355">
        <ele>132.7993164</ele>
        <time>2015-08-17T08:12:27Z</time>
      </trkpt>
      <trkpt lat="43.24401" lon="6.62347">
        <ele>133.2799072</ele>
        <time>2015-08-17T08:12:33Z</time>
      </trkpt>
      <trkpt lat="43.24374" lon="6.62337">
        <ele>132.7993164</ele>
        <time>2015-08-17T08:12:41Z</time>
      </trkpt>
      <trkpt lat="43.24347" lon="6.62327">
        <ele>135.6831055</ele>
        <time>2015-08-17T08:12:48Z</time>
      </trkpt>
      <trkpt lat="43.24319" lon="6.62314">
        <ele>138.5672607</ele>
        <time>2015-08-17T08:12:56Z</time>
      </trkpt>
      <trkpt lat="43.24296" lon="6.62302">
        <ele>137.605835</ele>
        <time>2015-08-17T08:13:03Z</time>
      </trkpt>
      <trkpt lat="43.24274" lon="6.62284">
        <ele>135.6831055</ele>
        <time>2015-08-17T08:13:10Z</time>
      </trkpt>
      <trkpt lat="43.24251" lon="6.62271">
        <ele>134.2412109</ele>
        <time>2015-08-17T08:13:17Z</time>
      </trkpt>
      <trkpt lat="43.24226" lon="6.62265">
        <ele>135.2025146</ele>
        <time>2015-08-17T08:13:24Z</time>
      </trkpt>
      <trkpt lat="43.24199" lon="6.62256">
        <ele>135.6831055</ele>
        <time>2015-08-17T08:13:31Z</time>
      </trkpt>
      <trkpt lat="43.24174" lon="6.62242">
        <ele>136.1639404</ele>
        <time>2015-08-17T08:13:38Z</time>
      </trkpt>
      <trkpt lat="43.24156" lon="6.62235">
        <ele>135.2025146</ele>
        <time>2015-08-17T08:13:44Z</time>
      </trkpt>
      <trkpt lat="43.24136" lon="6.62231">
        <ele>135.6831055</ele>
        <time>2015-08-17T08:13:51Z</time>
      </trkpt>
      <trkpt lat="43.24116" lon="6.62229">
        <ele>138.5672607</ele>
        <time>2015-08-17T08:14:00Z</time>
      </trkpt>
      <trkpt lat="43.24112" lon="6.62227">
        <ele>140.4898682</ele>
        <time>2015-08-17T08:14:05Z</time>
      </trkpt>
      <trkpt lat="43.24106" lon="6.62223">
        <ele>140.970459</ele>
        <time>2015-08-17T08:14:15Z</time>
      </trkpt>
      <trkpt lat="43.24089" lon="6.62213">
        <ele>139.0478516</ele>
        <time>2015-08-17T08:14:19Z</time>
      </trkpt>
      <trkpt lat="43.24062" lon="6.62208">
        <ele>136.1639404</ele>
        <time>2015-08-17T08:14:23Z</time>
      </trkpt>
      <trkpt lat="43.24035" lon="6.62205">
        <ele>135.2025146</ele>
        <time>2015-08-17T08:14:27Z</time>
      </trkpt>
      <trkpt lat="43.24024" lon="6.62201">
        <ele>134.7219238</ele>
        <time>2015-08-17T08:14:29Z</time>
      </trkpt>
      <trkpt lat="43.24003" lon="6.622">
        <ele>133.2799072</ele>
        <time>2015-08-17T08:14:33Z</time>
      </trkpt>
      <trkpt lat="43.23951" lon="6.6221">
        <ele>129.9152832</ele>
        <time>2015-08-17T08:14:41Z</time>
      </trkpt>
      <trkpt lat="43.23937" lon="6.62213">
        <ele>128.9541016</ele>
        <time>2015-08-17T08:14:43Z</time>
      </trkpt>
      <trkpt lat="43.23907" lon="6.62218">
        <ele>127.0313721</ele>
        <time>2015-08-17T08:14:47Z</time>
      </trkpt>
      <trkpt lat="43.23844" lon="6.62253">
        <ele>121.2635498</ele>
        <time>2015-08-17T08:14:55Z</time>
      </trkpt>
      <trkpt lat="43.23798" lon="6.62275">
        <ele>118.8601074</ele>
        <time>2015-08-17T08:15:00Z</time>
      </trkpt>
      <trkpt lat="43.23762" lon="6.62293">
        <ele>117.4182129</ele>
        <time>2015-08-17T08:15:04Z</time>
      </trkpt>
      <trkpt lat="43.23746" lon="6.62303">
        <ele>116.9375</ele>
        <time>2015-08-17T08:15:06Z</time>
      </trkpt>
      <trkpt lat="43.23721" lon="6.62329">
        <ele>116.9375</ele>
        <time>2015-08-17T08:15:10Z</time>
      </trkpt>
      <trkpt lat="43.2369" lon="6.62356">
        <ele>116.9375</ele>
        <time>2015-08-17T08:15:16Z</time>
      </trkpt>
      <trkpt lat="43.2368" lon="6.62363">
        <ele>116.9375</ele>
        <time>2015-08-17T08:15:18Z</time>
      </trkpt>
      <trkpt lat="43.2365" lon="6.6237">
        <ele>118.8601074</ele>
        <time>2015-08-17T08:15:24Z</time>
      </trkpt>
      <trkpt lat="43.23645" lon="6.62371">
        <ele>118.8601074</ele>
        <time>2015-08-17T08:15:25Z</time>
      </trkpt>
      <trkpt lat="43.2363" lon="6.62381">
        <ele>120.7828369</ele>
        <time>2015-08-17T08:15:29Z</time>
      </trkpt>
      <trkpt lat="43.23628" lon="6.62383">
        <ele>122.2247314</ele>
        <time>2015-08-17T08:15:34Z</time>
      </trkpt>
      <trkpt lat="43.23626" lon="6.62379">
        <ele>120.302124</ele>
        <time>2015-08-17T08:15:48Z</time>
      </trkpt>
      <trkpt lat="43.23626" lon="6.62375">
        <ele>121.7441406</ele>
        <time>2015-08-17T08:15:54Z</time>
      </trkpt>
      <trkpt lat="43.23627" lon="6.62375">
        <ele>121.2635498</ele>
        <time>2015-08-17T08:16:04Z</time>
      </trkpt>
      <trkpt lat="43.23626" lon="6.62373">
        <ele>121.2635498</ele>
        <time>2015-08-17T08:16:09Z</time>
      </trkpt>
      <trkpt lat="43.23613" lon="6.62375">
        <ele>121.2635498</ele>
        <time>2015-08-17T08:16:15Z</time>
      </trkpt>
      <trkpt lat="43.23603" lon="6.62379">
        <ele>121.7441406</ele>
        <time>2015-08-17T08:16:21Z</time>
      </trkpt>
      <trkpt lat="43.23592" lon="6.6239">
        <ele>121.2635498</ele>
        <time>2015-08-17T08:16:27Z</time>
      </trkpt>
      <trkpt lat="43.2358" lon="6.62404">
        <ele>123.1861572</ele>
        <time>2015-08-17T08:16:33Z</time>
      </trkpt>
      <trkpt lat="43.23568" lon="6.62414">
        <ele>122.2247314</ele>
        <time>2015-08-17T08:16:38Z</time>
      </trkpt>
      <trkpt lat="43.23548" lon="6.62433">
        <ele>119.8214111</ele>
        <time>2015-08-17T08:16:46Z</time>
      </trkpt>
      <trkpt lat="43.23525" lon="6.62457">
        <ele>117.4182129</ele>
        <time>2015-08-17T08:16:53Z</time>
      </trkpt>
      <trkpt lat="43.23506" lon="6.62468">
        <ele>118.8601074</ele>
        <time>2015-08-17T08:16:58Z</time>
      </trkpt>
      <trkpt lat="43.23499" lon="6.62472">
        <ele>119.3408203</ele>
        <time>2015-08-17T08:17:00Z</time>
      </trkpt>
      <trkpt lat="43.23478" lon="6.62487">
        <ele>119.3408203</ele>
        <time>2015-08-17T08:17:07Z</time>
      </trkpt>
      <trkpt lat="43.23465" lon="6.62489">
        <ele>117.4182129</ele>
        <time>2015-08-17T08:17:11Z</time>
      </trkpt>
      <trkpt lat="43.23457" lon="6.62487">
        <ele>117.4182129</ele>
        <time>2015-08-17T08:17:13Z</time>
      </trkpt>
      <trkpt lat="43.23447" lon="6.62493">
        <ele>116.4567871</ele>
        <time>2015-08-17T08:17:16Z</time>
      </trkpt>
      <trkpt lat="43.23426" lon="6.62495">
        <ele>115.4956055</ele>
        <time>2015-08-17T08:17:22Z</time>
      </trkpt>
      <trkpt lat="43.23414" lon="6.625">
        <ele>115.0148926</ele>
        <time>2015-08-17T08:17:26Z</time>
      </trkpt>
      <trkpt lat="43.23402" lon="6.62498">
        <ele>115.0148926</ele>
        <time>2015-08-17T08:17:29Z</time>
      </trkpt>
      <trkpt lat="43.23388" lon="6.62491">
        <ele>114.5341797</ele>
        <time>2015-08-17T08:17:33Z</time>
      </trkpt>
      <trkpt lat="43.23375" lon="6.62482">
        <ele>113.572998</ele>
        <time>2015-08-17T08:17:38Z</time>
      </trkpt>
      <trkpt lat="43.23361" lon="6.62471">
        <ele>114.0535889</ele>
        <time>2015-08-17T08:17:44Z</time>
      </trkpt>
      <trkpt lat="43.23343" lon="6.62452">
        <ele>114.0535889</ele>
        <time>2015-08-17T08:17:51Z</time>
      </trkpt>
      <trkpt lat="43.23333" lon="6.62439">
        <ele>113.0922852</ele>
        <time>2015-08-17T08:17:57Z</time>
      </trkpt>
      <trkpt lat="43.2332" lon="6.6242">
        <ele>111.6502686</ele>
        <time>2015-08-17T08:18:02Z</time>
      </trkpt>
      <trkpt lat="43.23308" lon="6.62405">
        <ele>110.6888428</ele>
        <time>2015-08-17T08:18:07Z</time>
      </trkpt>
      <trkpt lat="43.23298" lon="6.62389">
        <ele>110.6888428</ele>
        <time>2015-08-17T08:18:12Z</time>
      </trkpt>
      <trkpt lat="43.23287" lon="6.62374">
        <ele>110.208252</ele>
        <time>2015-08-17T08:18:17Z</time>
      </trkpt>
      <trkpt lat="43.23274" lon="6.6237">
        <ele>110.6888428</ele>
        <time>2015-08-17T08:18:20Z</time>
      </trkpt>
      <trkpt lat="43.23255" lon="6.62374">
        <ele>111.1695557</ele>
        <time>2015-08-17T08:18:24Z</time>
      </trkpt>
      <trkpt lat="43.23238" lon="6.62372">
        <ele>110.6888428</ele>
        <time>2015-08-17T08:18:28Z</time>
      </trkpt>
      <trkpt lat="43.23226" lon="6.62372">
        <ele>110.208252</ele>
        <time>2015-08-17T08:18:31Z</time>
      </trkpt>
      <trkpt lat="43.23205" lon="6.62377">
        <ele>109.2469482</ele>
        <time>2015-08-17T08:18:39Z</time>
      </trkpt>
      <trkpt lat="43.23187" lon="6.62385">
        <ele>109.2469482</ele>
        <time>2015-08-17T08:18:45Z</time>
      </trkpt>
      <trkpt lat="43.23179" lon="6.62395">
        <ele>108.2856445</ele>
        <time>2015-08-17T08:18:50Z</time>
      </trkpt>
      <trkpt lat="43.23168" lon="6.624">
        <ele>108.7662354</ele>
        <time>2015-08-17T08:18:56Z</time>
      </trkpt>
      <trkpt lat="43.23157" lon="6.62396">
        <ele>109.2469482</ele>
        <time>2015-08-17T08:19:00Z</time>
      </trkpt>
      <trkpt lat="43.23144" lon="6.62396">
        <ele>110.208252</ele>
        <time>2015-08-17T08:19:04Z</time>
      </trkpt>
      <trkpt lat="43.23128" lon="6.62397">
        <ele>112.1309814</ele>
        <time>2015-08-17T08:19:10Z</time>
      </trkpt>
      <trkpt lat="43.2311" lon="6.62395">
        <ele>113.0922852</ele>
        <time>2015-08-17T08:19:15Z</time>
      </trkpt>
      <trkpt lat="43.2309" lon="6.6239">
        <ele>112.1309814</ele>
        <time>2015-08-17T08:19:19Z</time>
      </trkpt>
      <trkpt lat="43.23086" lon="6.62388">
        <ele>112.1309814</ele>
        <time>2015-08-17T08:19:20Z</time>
      </trkpt>
      <trkpt lat="43.23065" lon="6.62374">
        <ele>110.208252</ele>
        <time>2015-08-17T08:19:25Z</time>
      </trkpt>
      <trkpt lat="43.23056" lon="6.62366">
        <ele>107.8050537</ele>
        <time>2015-08-17T08:19:27Z</time>
      </trkpt>
      <trkpt lat="43.23045" lon="6.62353">
        <ele>106.3630371</ele>
        <time>2015-08-17T08:19:31Z</time>
      </trkpt>
      <trkpt lat="43.2304" lon="6.62345">
        <ele>104.9210205</ele>
        <time>2015-08-17T08:19:34Z</time>
      </trkpt>
      <trkpt lat="43.23027" lon="6.62326">
        <ele>102.0371094</ele>
        <time>2015-08-17T08:19:40Z</time>
      </trkpt>
      <trkpt lat="43.23014" lon="6.62311">
        <ele>100.5950928</ele>
        <time>2015-08-17T08:19:45Z</time>
      </trkpt>
      <trkpt lat="43.22999" lon="6.62298">
        <ele>98.1918945</ele>
        <time>2015-08-17T08:19:53Z</time>
      </trkpt>
      <trkpt lat="43.22983" lon="6.62287">
        <ele>98.1918945</ele>
        <time>2015-08-17T08:20:00Z</time>
      </trkpt>
      <trkpt lat="43.22967" lon="6.62278">
        <ele>99.1530762</ele>
        <time>2015-08-17T08:20:05Z</time>
      </trkpt>
      <trkpt lat="43.22955" lon="6.6227">
        <ele>100.114502</ele>
        <time>2015-08-17T08:20:10Z</time>
      </trkpt>
      <trkpt lat="43.22945" lon="6.62254">
        <ele>102.5177002</ele>
        <time>2015-08-17T08:20:16Z</time>
      </trkpt>
      <trkpt lat="43.22935" lon="6.62233">
        <ele>98.6724854</ele>
        <time>2015-08-17T08:20:20Z</time>
      </trkpt>
      <trkpt lat="43.22921" lon="6.62226">
        <ele>97.2304688</ele>
        <time>2015-08-17T08:20:23Z</time>
      </trkpt>
      <trkpt lat="43.22911" lon="6.6223">
        <ele>93.8658447</ele>
        <time>2015-08-17T08:20:28Z</time>
      </trkpt>
      <trkpt lat="43.22911" lon="6.62229">
        <ele>95.3077393</ele>
        <time>2015-08-17T08:20:34Z</time>
      </trkpt>
      <trkpt lat="43.2291" lon="6.62227">
        <ele>98.6724854</ele>
        <time>2015-08-17T08:21:01Z</time>
      </trkpt>
      <trkpt lat="43.22897" lon="6.62233">
        <ele>96.7498779</ele>
        <time>2015-08-17T08:21:09Z</time>
      </trkpt>
      <trkpt lat="43.22884" lon="6.62244">
        <ele>96.2692871</ele>
        <time>2015-08-17T08:21:18Z</time>
      </trkpt>
      <trkpt lat="43.22875" lon="6.62252">
        <ele>101.0756836</ele>
        <time>2015-08-17T08:21:24Z</time>
      </trkpt>
      <trkpt lat="43.22869" lon="6.6226">
        <ele>103.9597168</ele>
        <time>2015-08-17T08:21:30Z</time>
      </trkpt>
      <trkpt lat="43.22864" lon="6.62262">
        <ele>105.8824463</ele>
        <time>2015-08-17T08:21:34Z</time>
      </trkpt>
      <trkpt lat="43.22858" lon="6.62259">
        <ele>107.8050537</ele>
        <time>2015-08-17T08:21:40Z</time>
      </trkpt>
      <trkpt lat="43.2286" lon="6.6225">
        <ele>107.8050537</ele>
        <time>2015-08-17T08:21:57Z</time>
      </trkpt>
      <trkpt lat="43.22865" lon="6.62249">
        <ele>104.4404297</ele>
        <time>2015-08-17T08:22:03Z</time>
      </trkpt>
      <trkpt lat="43.22873" lon="6.62246">
        <ele>102.0371094</ele>
        <time>2015-08-17T08:22:09Z</time>
      </trkpt>
      <trkpt lat="43.22879" lon="6.6224">
        <ele>100.114502</ele>
        <time>2015-08-17T08:22:12Z</time>
      </trkpt>
      <trkpt lat="43.2289" lon="6.62234">
        <ele>95.3077393</ele>
        <time>2015-08-17T08:22:19Z</time>
      </trkpt>
      <trkpt lat="43.22891" lon="6.62233">
        <ele>94.8271484</ele>
        <time>2015-08-17T08:22:20Z</time>
      </trkpt>
      <trkpt lat="43.22894" lon="6.62219">
        <ele>94.3465576</ele>
        <time>2015-08-17T08:22:27Z</time>
      </trkpt>
      <trkpt lat="43.22896" lon="6.62202">
        <ele>97.7111816</ele>
        <time>2015-08-17T08:22:33Z</time>
      </trkpt>
      <trkpt lat="43.22894" lon="6.6219">
        <ele>98.6724854</ele>
        <time>2015-08-17T08:22:39Z</time>
      </trkpt>
      <trkpt lat="43.22894" lon="6.62177">
        <ele>100.5950928</ele>
        <time>2015-08-17T08:22:45Z</time>
      </trkpt>
      <trkpt lat="43.22894" lon="6.62169">
        <ele>100.5950928</ele>
        <time>2015-08-17T08:22:48Z</time>
      </trkpt>
      <trkpt lat="43.22897" lon="6.6216">
        <ele>100.114502</ele>
        <time>2015-08-17T08:22:52Z</time>
      </trkpt>
      <trkpt lat="43.22903" lon="6.62143">
        <ele>100.114502</ele>
        <time>2015-08-17T08:22:59Z</time>
      </trkpt>
      <trkpt lat="43.22903" lon="6.62128">
        <ele>99.6337891</ele>
        <time>2015-08-17T08:23:04Z</time>
      </trkpt>
      <trkpt lat="43.22905" lon="6.62113">
        <ele>99.1530762</ele>
        <time>2015-08-17T08:23:08Z</time>
      </trkpt>
      <trkpt lat="43.22912" lon="6.62097">
        <ele>99.1530762</ele>
        <time>2015-08-17T08:23:13Z</time>
      </trkpt>
      <trkpt lat="43.22912" lon="6.62076">
        <ele>97.2304688</ele>
        <time>2015-08-17T08:23:17Z</time>
      </trkpt>
      <trkpt lat="43.22903" lon="6.62053">
        <ele>93.8658447</ele>
        <time>2015-08-17T08:23:21Z</time>
      </trkpt>
      <trkpt lat="43.229" lon="6.62049">
        <ele>93.3851318</ele>
        <time>2015-08-17T08:23:22Z</time>
      </trkpt>
      <trkpt lat="43.22886" lon="6.62037">
        <ele>94.3465576</ele>
        <time>2015-08-17T08:23:28Z</time>
      </trkpt>
      <trkpt lat="43.22875" lon="6.62031">
        <ele>96.2692871</ele>
        <time>2015-08-17T08:23:34Z</time>
      </trkpt>
      <trkpt lat="43.22875" lon="6.62029">
        <ele>99.6337891</ele>
        <time>2015-08-17T08:23:41Z</time>
      </trkpt>
      <trkpt lat="43.22873" lon="6.6203">
        <ele>105.8824463</ele>
        <time>2015-08-17T08:23:47Z</time>
      </trkpt>
      <trkpt lat="43.22868" lon="6.62029">
        <ele>105.8824463</ele>
        <time>2015-08-17T08:23:52Z</time>
      </trkpt>
      <trkpt lat="43.22859" lon="6.62025">
        <ele>104.4404297</ele>
        <time>2015-08-17T08:23:57Z</time>
      </trkpt>
      <trkpt lat="43.22848" lon="6.6202">
        <ele>103.4790039</ele>
        <time>2015-08-17T08:24:03Z</time>
      </trkpt>
      <trkpt lat="43.22838" lon="6.62014">
        <ele>105.4017334</ele>
        <time>2015-08-17T08:24:09Z</time>
      </trkpt>
      <trkpt lat="43.2283" lon="6.62005">
        <ele>106.3630371</ele>
        <time>2015-08-17T08:24:13Z</time>
      </trkpt>
      <trkpt lat="43.22826" lon="6.61992">
        <ele>105.8824463</ele>
        <time>2015-08-17T08:24:19Z</time>
      </trkpt>
      <trkpt lat="43.22826" lon="6.6198">
        <ele>105.8824463</ele>
        <time>2015-08-17T08:24:24Z</time>
      </trkpt>
      <trkpt lat="43.22826" lon="6.61979">
        <ele>105.4017334</ele>
        <time>2015-08-17T08:24:25Z</time>
      </trkpt>
      <trkpt lat="43.22827" lon="6.61969">
        <ele>111.1695557</ele>
        <time>2015-08-17T08:24:31Z</time>
      </trkpt>
      <trkpt lat="43.22826" lon="6.61959">
        <ele>111.6502686</ele>
        <time>2015-08-17T08:24:38Z</time>
      </trkpt>
      <trkpt lat="43.22826" lon="6.61957">
        <ele>111.6502686</ele>
        <time>2015-08-17T08:24:39Z</time>
      </trkpt>
      <trkpt lat="43.22825" lon="6.61939">
        <ele>108.2856445</ele>
        <time>2015-08-17T08:24:44Z</time>
      </trkpt>
      <trkpt lat="43.22827" lon="6.61928">
        <ele>108.2856445</ele>
        <time>2015-08-17T08:24:47Z</time>
      </trkpt>
      <trkpt lat="43.22834" lon="6.61908">
        <ele>106.3630371</ele>
        <time>2015-08-17T08:24:55Z</time>
      </trkpt>
      <trkpt lat="43.22832" lon="6.61901">
        <ele>105.8824463</ele>
        <time>2015-08-17T08:24:58Z</time>
      </trkpt>
      <trkpt lat="43.22831" lon="6.61895">
        <ele>106.8436279</ele>
        <time>2015-08-17T08:25:03Z</time>
      </trkpt>
      <trkpt lat="43.22833" lon="6.61893">
        <ele>110.6888428</ele>
        <time>2015-08-17T08:25:18Z</time>
      </trkpt>
      <trkpt lat="43.22832" lon="6.61897">
        <ele>117.4182129</ele>
        <time>2015-08-17T08:25:35Z</time>
      </trkpt>
      <trkpt lat="43.22833" lon="6.61895">
        <ele>117.8988037</ele>
        <time>2015-08-17T08:25:47Z</time>
      </trkpt>
      <trkpt lat="43.22832" lon="6.61896">
        <ele>115.0148926</ele>
        <time>2015-08-17T08:25:56Z</time>
      </trkpt>
      <trkpt lat="43.22831" lon="6.61894">
        <ele>113.572998</ele>
        <time>2015-08-17T08:26:05Z</time>
      </trkpt>
      <trkpt lat="43.22829" lon="6.61892">
        <ele>113.572998</ele>
        <time>2015-08-17T08:26:18Z</time>
      </trkpt>
      <trkpt lat="43.22835" lon="6.61893">
        <ele>115.0148926</ele>
        <time>2015-08-17T08:26:51Z</time>
      </trkpt>
      <trkpt lat="43.22839" lon="6.61893">
        <ele>115.4956055</ele>
        <time>2015-08-17T08:26:56Z</time>
      </trkpt>
      <trkpt lat="43.22853" lon="6.61892">
        <ele>114.0535889</ele>
        <time>2015-08-17T08:27:03Z</time>
      </trkpt>
      <trkpt lat="43.2286" lon="6.61893">
        <ele>113.572998</ele>
        <time>2015-08-17T08:27:07Z</time>
      </trkpt>
      <trkpt lat="43.22866" lon="6.61891">
        <ele>112.1309814</ele>
        <time>2015-08-17T08:27:11Z</time>
      </trkpt>
      <trkpt lat="43.22882" lon="6.61891">
        <ele>109.2469482</ele>
        <time>2015-08-17T08:27:17Z</time>
      </trkpt>
      <trkpt lat="43.22887" lon="6.61889">
        <ele>107.8050537</ele>
        <time>2015-08-17T08:27:21Z</time>
      </trkpt>
      <trkpt lat="43.22894" lon="6.61882">
        <ele>105.4017334</ele>
        <time>2015-08-17T08:27:26Z</time>
      </trkpt>
      <trkpt lat="43.22904" lon="6.61874">
        <ele>104.4404297</ele>
        <time>2015-08-17T08:27:29Z</time>
      </trkpt>
      <trkpt lat="43.22907" lon="6.61861">
        <ele>101.5563965</ele>
        <time>2015-08-17T08:27:34Z</time>
      </trkpt>
      <trkpt lat="43.22907" lon="6.61854">
        <ele>99.6337891</ele>
        <time>2015-08-17T08:27:37Z</time>
      </trkpt>
      <trkpt lat="43.22908" lon="6.61849">
        <ele>98.6724854</ele>
        <time>2015-08-17T08:27:39Z</time>
      </trkpt>
      <trkpt lat="43.22905" lon="6.61839">
        <ele>94.8271484</ele>
        <time>2015-08-17T08:27:44Z</time>
      </trkpt>
      <trkpt lat="43.22904" lon="6.61831">
        <ele>94.8271484</ele>
        <time>2015-08-17T08:27:48Z</time>
      </trkpt>
      <trkpt lat="43.22903" lon="6.61825">
        <ele>95.7884521</ele>
        <time>2015-08-17T08:27:53Z</time>
      </trkpt>
      <trkpt lat="43.22904" lon="6.61818">
        <ele>97.7111816</ele>
        <time>2015-08-17T08:27:59Z</time>
      </trkpt>
      <trkpt lat="43.22903" lon="6.61811">
        <ele>99.1530762</ele>
        <time>2015-08-17T08:28:14Z</time>
      </trkpt>
      <trkpt lat="43.22906" lon="6.61807">
        <ele>100.114502</ele>
        <time>2015-08-17T08:28:19Z</time>
      </trkpt>
      <trkpt lat="43.22908" lon="6.61802">
        <ele>98.1918945</ele>
        <time>2015-08-17T08:28:25Z</time>
      </trkpt>
      <trkpt lat="43.2291" lon="6.61794">
        <ele>94.3465576</ele>
        <time>2015-08-17T08:28:31Z</time>
      </trkpt>
      <trkpt lat="43.22909" lon="6.61781">
        <ele>88.0980225</ele>
        <time>2015-08-17T08:28:36Z</time>
      </trkpt>
      <trkpt lat="43.22906" lon="6.6177">
        <ele>82.810791</ele>
        <time>2015-08-17T08:28:40Z</time>
      </trkpt>
      <trkpt lat="43.22906" lon="6.61759">
        <ele>78.4847412</ele>
        <time>2015-08-17T08:28:44Z</time>
      </trkpt>
      <trkpt lat="43.22908" lon="6.61744">
        <ele>75.1202393</ele>
        <time>2015-08-17T08:28:48Z</time>
      </trkpt>
      <trkpt lat="43.22909" lon="6.61738">
        <ele>74.1588135</ele>
        <time>2015-08-17T08:28:51Z</time>
      </trkpt>
      <trkpt lat="43.22913" lon="6.61725">
        <ele>71.7554932</ele>
        <time>2015-08-17T08:28:55Z</time>
      </trkpt>
      <trkpt lat="43.22915" lon="6.61718">
        <ele>70.7941895</ele>
        <time>2015-08-17T08:29:01Z</time>
      </trkpt>
      <trkpt lat="43.22917" lon="6.61706">
        <ele>69.8328857</ele>
        <time>2015-08-17T08:29:05Z</time>
      </trkpt>
      <trkpt lat="43.2292" lon="6.61698">
        <ele>68.871582</ele>
        <time>2015-08-17T08:29:07Z</time>
      </trkpt>
      <trkpt lat="43.22922" lon="6.61678">
        <ele>69.8328857</ele>
        <time>2015-08-17T08:29:12Z</time>
      </trkpt>
      <trkpt lat="43.22922" lon="6.61674">
        <ele>70.3134766</ele>
        <time>2015-08-17T08:29:13Z</time>
      </trkpt>
      <trkpt lat="43.22925" lon="6.61668">
        <ele>75.6008301</ele>
        <time>2015-08-17T08:29:19Z</time>
      </trkpt>
      <trkpt lat="43.22926" lon="6.61667">
        <ele>76.0814209</ele>
        <time>2015-08-17T08:29:21Z</time>
      </trkpt>
      <trkpt lat="43.22932" lon="6.61655">
        <ele>72.2362061</ele>
        <time>2015-08-17T08:29:27Z</time>
      </trkpt>
      <trkpt lat="43.22934" lon="6.61649">
        <ele>68.871582</ele>
        <time>2015-08-17T08:29:30Z</time>
      </trkpt>
      <trkpt lat="43.22944" lon="6.6163">
        <ele>66.4682617</ele>
        <time>2015-08-17T08:29:37Z</time>
      </trkpt>
      <trkpt lat="43.22947" lon="6.61626">
        <ele>65.5070801</ele>
        <time>2015-08-17T08:29:39Z</time>
      </trkpt>
      <trkpt lat="43.22953" lon="6.61616">
        <ele>64.5456543</ele>
        <time>2015-08-17T08:29:45Z</time>
      </trkpt>
      <trkpt lat="43.22954" lon="6.61616">
        <ele>65.0263672</ele>
        <time>2015-08-17T08:29:46Z</time>
      </trkpt>
      <trkpt lat="43.22955" lon="6.61615">
        <ele>68.871582</ele>
        <time>2015-08-17T08:29:53Z</time>
      </trkpt>
      <trkpt lat="43.22959" lon="6.61613">
        <ele>78.4847412</ele>
        <time>2015-08-17T08:30:09Z</time>
      </trkpt>
      <trkpt lat="43.22957" lon="6.61612">
        <ele>77.5234375</ele>
        <time>2015-08-17T08:30:19Z</time>
      </trkpt>
      <trkpt lat="43.22957" lon="6.61613">
        <ele>78.9654541</ele>
        <time>2015-08-17T08:30:28Z</time>
      </trkpt>
      <trkpt lat="43.22955" lon="6.61614">
        <ele>78.4847412</ele>
        <time>2015-08-17T08:30:35Z</time>
      </trkpt>
      <trkpt lat="43.22957" lon="6.61614">
        <ele>75.6008301</ele>
        <time>2015-08-17T08:30:59Z</time>
      </trkpt>
      <trkpt lat="43.22956" lon="6.61615">
        <ele>75.1202393</ele>
        <time>2015-08-17T08:31:06Z</time>
      </trkpt>
      <trkpt lat="43.22959" lon="6.61615">
        <ele>77.5234375</ele>
        <time>2015-08-17T08:31:13Z</time>
      </trkpt>
      <trkpt lat="43.22959" lon="6.61606">
        <ele>74.6395264</ele>
        <time>2015-08-17T08:32:01Z</time>
      </trkpt>
      <trkpt lat="43.22963" lon="6.6161">
        <ele>74.6395264</ele>
        <time>2015-08-17T08:32:07Z</time>
      </trkpt>
      <trkpt lat="43.22972" lon="6.61617">
        <ele>77.0428467</ele>
        <time>2015-08-17T08:32:13Z</time>
      </trkpt>
      <trkpt lat="43.22985" lon="6.61625">
        <ele>77.5234375</ele>
        <time>2015-08-17T08:32:20Z</time>
      </trkpt>
      <trkpt lat="43.22994" lon="6.61633">
        <ele>76.5621338</ele>
        <time>2015-08-17T08:32:27Z</time>
      </trkpt>
      <trkpt lat="43.23005" lon="6.61634">
        <ele>74.1588135</ele>
        <time>2015-08-17T08:32:32Z</time>
      </trkpt>
      <trkpt lat="43.23018" lon="6.61646">
        <ele>73.1976318</ele>
        <time>2015-08-17T08:32:37Z</time>
      </trkpt>
      <trkpt lat="43.23022" lon="6.61651">
        <ele>72.7169189</ele>
        <time>2015-08-17T08:32:39Z</time>
      </trkpt>
      <trkpt lat="43.23039" lon="6.61659">
        <ele>73.6782227</ele>
        <time>2015-08-17T08:32:45Z</time>
      </trkpt>
      <trkpt lat="43.23062" lon="6.61672">
        <ele>75.1202393</ele>
        <time>2015-08-17T08:32:52Z</time>
      </trkpt>
      <trkpt lat="43.23091" lon="6.61689">
        <ele>73.6782227</ele>
        <time>2015-08-17T08:33:00Z</time>
      </trkpt>
      <trkpt lat="43.23102" lon="6.61688">
        <ele>74.1588135</ele>
        <time>2015-08-17T08:33:04Z</time>
      </trkpt>
      <trkpt lat="43.23117" lon="6.61683">
        <ele>73.6782227</ele>
        <time>2015-08-17T08:33:11Z</time>
      </trkpt>
      <trkpt lat="43.23139" lon="6.6168">
        <ele>72.2362061</ele>
        <time>2015-08-17T08:33:19Z</time>
      </trkpt>
      <trkpt lat="43.23164" lon="6.61678">
        <ele>70.3134766</ele>
        <time>2015-08-17T08:33:26Z</time>
      </trkpt>
      <trkpt lat="43.23185" lon="6.61678">
        <ele>68.871582</ele>
        <time>2015-08-17T08:33:31Z</time>
      </trkpt>
      <trkpt lat="43.2321" lon="6.6167">
        <ele>65.5070801</ele>
        <time>2015-08-17T08:33:38Z</time>
      </trkpt>
      <trkpt lat="43.23217" lon="6.6167">
        <ele>65.0263672</ele>
        <time>2015-08-17T08:33:40Z</time>
      </trkpt>
      <trkpt lat="43.2323" lon="6.61685">
        <ele>63.1036377</ele>
        <time>2015-08-17T08:33:45Z</time>
      </trkpt>
      <trkpt lat="43.23231" lon="6.61694">
        <ele>61.6617432</ele>
        <time>2015-08-17T08:33:49Z</time>
      </trkpt>
      <trkpt lat="43.23233" lon="6.61698">
        <ele>60.7003174</ele>
        <time>2015-08-17T08:33:55Z</time>
      </trkpt>
      <trkpt lat="43.23235" lon="6.61704">
        <ele>60.7003174</ele>
        <time>2015-08-17T08:34:02Z</time>
      </trkpt>
      <trkpt lat="43.23241" lon="6.61714">
        <ele>62.142334</ele>
        <time>2015-08-17T08:34:07Z</time>
      </trkpt>
      <trkpt lat="43.23243" lon="6.61731">
        <ele>64.0650635</ele>
        <time>2015-08-17T08:34:12Z</time>
      </trkpt>
      <trkpt lat="43.23247" lon="6.61754">
        <ele>65.9876709</ele>
        <time>2015-08-17T08:34:19Z</time>
      </trkpt>
      <trkpt lat="43.23244" lon="6.61767">
        <ele>67.4296875</ele>
        <time>2015-08-17T08:34:24Z</time>
      </trkpt>
      <trkpt lat="43.23237" lon="6.61785">
        <ele>67.4296875</ele>
        <time>2015-08-17T08:34:30Z</time>
      </trkpt>
      <trkpt lat="43.23229" lon="6.61802">
        <ele>65.9876709</ele>
        <time>2015-08-17T08:34:35Z</time>
      </trkpt>
      <trkpt lat="43.2321" lon="6.61828">
        <ele>66.4682617</ele>
        <time>2015-08-17T08:34:43Z</time>
      </trkpt>
      <trkpt lat="43.23193" lon="6.61845">
        <ele>66.4682617</ele>
        <time>2015-08-17T08:34:49Z</time>
      </trkpt>
      <trkpt lat="43.23173" lon="6.61864">
        <ele>68.3908691</ele>
        <time>2015-08-17T08:34:56Z</time>
      </trkpt>
      <trkpt lat="43.23153" lon="6.61886">
        <ele>70.3134766</ele>
        <time>2015-08-17T08:35:04Z</time>
      </trkpt>
      <trkpt lat="43.23138" lon="6.61902">
        <ele>69.3522949</ele>
        <time>2015-08-17T08:35:10Z</time>
      </trkpt>
      <trkpt lat="43.23123" lon="6.61924">
        <ele>71.2749023</ele>
        <time>2015-08-17T08:35:18Z</time>
      </trkpt>
      <trkpt lat="43.23111" lon="6.61944">
        <ele>72.2362061</ele>
        <time>2015-08-17T08:35:26Z</time>
      </trkpt>
      <trkpt lat="43.2311" lon="6.61964">
        <ele>74.6395264</ele>
        <time>2015-08-17T08:35:32Z</time>
      </trkpt>
      <trkpt lat="43.23112" lon="6.61986">
        <ele>76.0814209</ele>
        <time>2015-08-17T08:35:40Z</time>
      </trkpt>
      <trkpt lat="43.23113" lon="6.62009">
        <ele>76.5621338</ele>
        <time>2015-08-17T08:35:47Z</time>
      </trkpt>
      <trkpt lat="43.23114" lon="6.62037">
        <ele>77.0428467</ele>
        <time>2015-08-17T08:35:56Z</time>
      </trkpt>
      <trkpt lat="43.23114" lon="6.62055">
        <ele>78.0040283</ele>
        <time>2015-08-17T08:36:03Z</time>
      </trkpt>
      <trkpt lat="43.23107" lon="6.62064">
        <ele>78.9654541</ele>
        <time>2015-08-17T08:36:07Z</time>
      </trkpt>
      <trkpt lat="43.23088" lon="6.6208">
        <ele>79.4460449</ele>
        <time>2015-08-17T08:36:14Z</time>
      </trkpt>
      <trkpt lat="43.23068" lon="6.62091">
        <ele>80.4074707</ele>
        <time>2015-08-17T08:36:20Z</time>
      </trkpt>
      <trkpt lat="43.23054" lon="6.62101">
        <ele>83.7719727</ele>
        <time>2015-08-17T08:36:25Z</time>
      </trkpt>
      <trkpt lat="43.23029" lon="6.62112">
        <ele>88.0980225</ele>
        <time>2015-08-17T08:36:32Z</time>
      </trkpt>
      <trkpt lat="43.23008" lon="6.62129">
        <ele>89.539917</ele>
        <time>2015-08-17T08:36:39Z</time>
      </trkpt>
      <trkpt lat="43.22984" lon="6.62151">
        <ele>90.9819336</ele>
        <time>2015-08-17T08:36:47Z</time>
      </trkpt>
      <trkpt lat="43.22963" lon="6.62173">
        <ele>92.904541</ele>
        <time>2015-08-17T08:36:55Z</time>
      </trkpt>
      <trkpt lat="43.22949" lon="6.62186">
        <ele>93.3851318</ele>
        <time>2015-08-17T08:37:01Z</time>
      </trkpt>
      <trkpt lat="43.22933" lon="6.62205">
        <ele>96.7498779</ele>
        <time>2015-08-17T08:37:09Z</time>
      </trkpt>
      <trkpt lat="43.22923" lon="6.62216">
        <ele>97.2304688</ele>
        <time>2015-08-17T08:37:15Z</time>
      </trkpt>
      <trkpt lat="43.22908" lon="6.62226">
        <ele>100.114502</ele>
        <time>2015-08-17T08:37:22Z</time>
      </trkpt>
      <trkpt lat="43.22888" lon="6.62236">
        <ele>103.4790039</ele>
        <time>2015-08-17T08:37:31Z</time>
      </trkpt>
      <trkpt lat="43.22877" lon="6.62246">
        <ele>104.9210205</ele>
        <time>2015-08-17T08:37:37Z</time>
      </trkpt>
      <trkpt lat="43.22866" lon="6.62252">
        <ele>107.8050537</ele>
        <time>2015-08-17T08:37:43Z</time>
      </trkpt>
      <trkpt lat="43.22859" lon="6.62256">
        <ele>108.7662354</ele>
        <time>2015-08-17T08:37:49Z</time>
      </trkpt>
      <trkpt lat="43.22859" lon="6.62263">
        <ele>114.5341797</ele>
        <time>2015-08-17T08:37:59Z</time>
      </trkpt>
      <trkpt lat="43.22858" lon="6.62261">
        <ele>112.6115723</ele>
        <time>2015-08-17T08:38:09Z</time>
      </trkpt>
      <trkpt lat="43.2286" lon="6.62254">
        <ele>109.2469482</ele>
        <time>2015-08-17T08:38:26Z</time>
      </trkpt>
      <trkpt lat="43.22859" lon="6.62257">
        <ele>108.7662354</ele>
        <time>2015-08-17T08:38:38Z</time>
      </trkpt>
      <trkpt lat="43.22855" lon="6.62264">
        <ele>119.8214111</ele>
        <time>2015-08-17T08:38:52Z</time>
      </trkpt>
      <trkpt lat="43.22854" lon="6.62262">
        <ele>121.7441406</ele>
        <time>2015-08-17T08:39:04Z</time>
      </trkpt>
      <trkpt lat="43.22856" lon="6.6226">
        <ele>117.4182129</ele>
        <time>2015-08-17T08:39:14Z</time>
      </trkpt>
      <trkpt lat="43.22858" lon="6.62261">
        <ele>113.572998</ele>
        <time>2015-08-17T08:39:24Z</time>
      </trkpt>
      <trkpt lat="43.22857" lon="6.62262">
        <ele>114.0535889</ele>
        <time>2015-08-17T08:39:42Z</time>
      </trkpt>
      <trkpt lat="43.22857" lon="6.62258">
        <ele>110.6888428</ele>
        <time>2015-08-17T08:39:48Z</time>
      </trkpt>
      <trkpt lat="43.22859" lon="6.6225">
        <ele>106.8436279</ele>
        <time>2015-08-17T08:39:54Z</time>
      </trkpt>
      <trkpt lat="43.22859" lon="6.62247">
        <ele>106.3630371</ele>
        <time>2015-08-17T08:39:56Z</time>
      </trkpt>
      <trkpt lat="43.22857" lon="6.6223">
        <ele>107.3243408</ele>
        <time>2015-08-17T08:40:05Z</time>
      </trkpt>
      <trkpt lat="43.22851" lon="6.62219">
        <ele>106.3630371</ele>
        <time>2015-08-17T08:40:12Z</time>
      </trkpt>
      <trkpt lat="43.22845" lon="6.62206">
        <ele>105.4017334</ele>
        <time>2015-08-17T08:40:19Z</time>
      </trkpt>
      <trkpt lat="43.2285" lon="6.62192">
        <ele>107.8050537</ele>
        <time>2015-08-17T08:40:25Z</time>
      </trkpt>
      <trkpt lat="43.22857" lon="6.62175">
        <ele>109.7276611</ele>
        <time>2015-08-17T08:40:33Z</time>
      </trkpt>
      <trkpt lat="43.22858" lon="6.62156">
        <ele>109.7276611</ele>
        <time>2015-08-17T08:40:40Z</time>
      </trkpt>
      <trkpt lat="43.22853" lon="6.6213">
        <ele>109.2469482</ele>
        <time>2015-08-17T08:40:49Z</time>
      </trkpt>
      <trkpt lat="43.22856" lon="6.62105">
        <ele>110.208252</ele>
        <time>2015-08-17T08:40:56Z</time>
      </trkpt>
      <trkpt lat="43.22859" lon="6.6208">
        <ele>112.1309814</ele>
        <time>2015-08-17T08:41:03Z</time>
      </trkpt>
      <trkpt lat="43.22853" lon="6.6207">
        <ele>112.1309814</ele>
        <time>2015-08-17T08:41:07Z</time>
      </trkpt>
      <trkpt lat="43.22839" lon="6.62063">
        <ele>112.1309814</ele>
        <time>2015-08-17T08:41:13Z</time>
      </trkpt>
      <trkpt lat="43.22825" lon="6.62055">
        <ele>114.0535889</ele>
        <time>2015-08-17T08:41:19Z</time>
      </trkpt>
      <trkpt lat="43.22813" lon="6.62051">
        <ele>115.9761963</ele>
        <time>2015-08-17T08:41:24Z</time>
      </trkpt>
      <trkpt lat="43.22799" lon="6.62043">
        <ele>117.8988037</ele>
        <time>2015-08-17T08:41:30Z</time>
      </trkpt>
      <trkpt lat="43.22798" lon="6.62023">
        <ele>117.8988037</ele>
        <time>2015-08-17T08:41:36Z</time>
      </trkpt>
      <trkpt lat="43.228" lon="6.6199">
        <ele>115.4956055</ele>
        <time>2015-08-17T08:41:44Z</time>
      </trkpt>
      <trkpt lat="43.22798" lon="6.61958">
        <ele>114.0535889</ele>
        <time>2015-08-17T08:41:52Z</time>
      </trkpt>
      <trkpt lat="43.22798" lon="6.61933">
        <ele>113.0922852</ele>
        <time>2015-08-17T08:41:59Z</time>
      </trkpt>
      <trkpt lat="43.22791" lon="6.61903">
        <ele>112.1309814</ele>
        <time>2015-08-17T08:42:07Z</time>
      </trkpt>
      <trkpt lat="43.22774" lon="6.6188">
        <ele>111.1695557</ele>
        <time>2015-08-17T08:42:14Z</time>
      </trkpt>
      <trkpt lat="43.22759" lon="6.61857">
        <ele>111.6502686</ele>
        <time>2015-08-17T08:42:22Z</time>
      </trkpt>
      <trkpt lat="43.22744" lon="6.61842">
        <ele>112.1309814</ele>
        <time>2015-08-17T08:42:27Z</time>
      </trkpt>
      <trkpt lat="43.22722" lon="6.61825">
        <ele>109.7276611</ele>
        <time>2015-08-17T08:42:32Z</time>
      </trkpt>
      <trkpt lat="43.22699" lon="6.61808">
        <ele>108.7662354</ele>
        <time>2015-08-17T08:42:37Z</time>
      </trkpt>
      <trkpt lat="43.22677" lon="6.61794">
        <ele>108.2856445</ele>
        <time>2015-08-17T08:42:43Z</time>
      </trkpt>
      <trkpt lat="43.22674" lon="6.61792">
        <ele>108.2856445</ele>
        <time>2015-08-17T08:42:44Z</time>
      </trkpt>
      <trkpt lat="43.22664" lon="6.61794">
        <ele>109.7276611</ele>
        <time>2015-08-17T08:42:49Z</time>
      </trkpt>
      <trkpt lat="43.22664" lon="6.61798">
        <ele>110.6888428</ele>
        <time>2015-08-17T08:42:50Z</time>
      </trkpt>
      <trkpt lat="43.22661" lon="6.61832">
        <ele>115.0148926</ele>
        <time>2015-08-17T08:43:01Z</time>
      </trkpt>
      <trkpt lat="43.22658" lon="6.61859">
        <ele>115.9761963</ele>
        <time>2015-08-17T08:43:10Z</time>
      </trkpt>
      <trkpt lat="43.22657" lon="6.6188">
        <ele>116.9375</ele>
        <time>2015-08-17T08:43:17Z</time>
      </trkpt>
      <trkpt lat="43.22657" lon="6.61899">
        <ele>117.4182129</ele>
        <time>2015-08-17T08:43:24Z</time>
      </trkpt>
      <trkpt lat="43.22655" lon="6.61919">
        <ele>117.8988037</ele>
        <time>2015-08-17T08:43:30Z</time>
      </trkpt>
      <trkpt lat="43.22651" lon="6.61954">
        <ele>119.3408203</ele>
        <time>2015-08-17T08:43:39Z</time>
      </trkpt>
      <trkpt lat="43.2265" lon="6.6198">
        <ele>121.2635498</ele>
        <time>2015-08-17T08:43:45Z</time>
      </trkpt>
      <trkpt lat="43.22654" lon="6.62002">
        <ele>122.2247314</ele>
        <time>2015-08-17T08:43:50Z</time>
      </trkpt>
      <trkpt lat="43.22667" lon="6.62035">
        <ele>120.7828369</ele>
        <time>2015-08-17T08:43:58Z</time>
      </trkpt>
      <trkpt lat="43.22673" lon="6.62069">
        <ele>122.2247314</ele>
        <time>2015-08-17T08:44:05Z</time>
      </trkpt>
      <trkpt lat="43.22675" lon="6.62097">
        <ele>125.1087646</ele>
        <time>2015-08-17T08:44:12Z</time>
      </trkpt>
      <trkpt lat="43.22674" lon="6.62118">
        <ele>128.4733887</ele>
        <time>2015-08-17T08:44:18Z</time>
      </trkpt>
      <trkpt lat="43.22665" lon="6.62141">
        <ele>130.876709</ele>
        <time>2015-08-17T08:44:26Z</time>
      </trkpt>
      <trkpt lat="43.22651" lon="6.62151">
        <ele>133.760498</ele>
        <time>2015-08-17T08:44:32Z</time>
      </trkpt>
      <trkpt lat="43.22636" lon="6.62159">
        <ele>136.6446533</ele>
        <time>2015-08-17T08:44:38Z</time>
      </trkpt>
      <trkpt lat="43.22616" lon="6.62171">
        <ele>137.605835</ele>
        <time>2015-08-17T08:44:47Z</time>
      </trkpt>
      <trkpt lat="43.22602" lon="6.62176">
        <ele>139.5284424</ele>
        <time>2015-08-17T08:44:54Z</time>
      </trkpt>
      <trkpt lat="43.2259" lon="6.62185">
        <ele>139.5284424</ele>
        <time>2015-08-17T08:45:00Z</time>
      </trkpt>
      <trkpt lat="43.22578" lon="6.62197">
        <ele>141.9317627</ele>
        <time>2015-08-17T08:45:06Z</time>
      </trkpt>
      <trkpt lat="43.22564" lon="6.62205">
        <ele>143.8543701</ele>
        <time>2015-08-17T08:45:13Z</time>
      </trkpt>
      <trkpt lat="43.22549" lon="6.62221">
        <ele>145.2963867</ele>
        <time>2015-08-17T08:45:20Z</time>
      </trkpt>
      <trkpt lat="43.22542" lon="6.62239">
        <ele>145.2963867</ele>
        <time>2015-08-17T08:45:25Z</time>
      </trkpt>
      <trkpt lat="43.22536" lon="6.62264">
        <ele>147.2189941</ele>
        <time>2015-08-17T08:45:31Z</time>
      </trkpt>
      <trkpt lat="43.22534" lon="6.62295">
        <ele>146.7384033</ele>
        <time>2015-08-17T08:45:38Z</time>
      </trkpt>
      <trkpt lat="43.22536" lon="6.62332">
        <ele>147.699707</ele>
        <time>2015-08-17T08:45:46Z</time>
      </trkpt>
      <trkpt lat="43.22538" lon="6.6235">
        <ele>147.699707</ele>
        <time>2015-08-17T08:45:51Z</time>
      </trkpt>
      <trkpt lat="43.22538" lon="6.6235">
        <ele>145.7770996</ele>
        <time>2015-08-17T08:45:55Z</time>
      </trkpt>
      <trkpt lat="43.22537" lon="6.62351">
        <ele>144.8157959</ele>
        <time>2015-08-17T08:46:01Z</time>
      </trkpt>
      <trkpt lat="43.22536" lon="6.6235">
        <ele>147.2189941</ele>
        <time>2015-08-17T08:46:06Z</time>
      </trkpt>
      <trkpt lat="43.22537" lon="6.62355">
        <ele>148.6610107</ele>
        <time>2015-08-17T08:46:11Z</time>
      </trkpt>
      <trkpt lat="43.22535" lon="6.62355">
        <ele>148.6610107</ele>
        <time>2015-08-17T08:46:16Z</time>
      </trkpt>
      <trkpt lat="43.22535" lon="6.62355">
        <ele>146.2578125</ele>
        <time>2015-08-17T08:46:25Z</time>
      </trkpt>
      <trkpt lat="43.22531" lon="6.6236">
        <ele>144.8157959</ele>
        <time>2015-08-17T08:46:31Z</time>
      </trkpt>
      <trkpt lat="43.22532" lon="6.62359">
        <ele>143.3736572</ele>
        <time>2015-08-17T08:46:47Z</time>
      </trkpt>
      <trkpt lat="43.22528" lon="6.6237">
        <ele>148.6610107</ele>
        <time>2015-08-17T08:47:54Z</time>
      </trkpt>
      <trkpt lat="43.22514" lon="6.62387">
        <ele>146.2578125</ele>
        <time>2015-08-17T08:48:00Z</time>
      </trkpt>
      <trkpt lat="43.22492" lon="6.62411">
        <ele>141.4510498</ele>
        <time>2015-08-17T08:48:08Z</time>
      </trkpt>
      <trkpt lat="43.22476" lon="6.62419">
        <ele>141.9317627</ele>
        <time>2015-08-17T08:48:13Z</time>
      </trkpt>
      <trkpt lat="43.22453" lon="6.62427">
        <ele>141.4510498</ele>
        <time>2015-08-17T08:48:19Z</time>
      </trkpt>
      <trkpt lat="43.22436" lon="6.62428">
        <ele>141.9317627</ele>
        <time>2015-08-17T08:48:23Z</time>
      </trkpt>
      <trkpt lat="43.22416" lon="6.62436">
        <ele>139.5284424</ele>
        <time>2015-08-17T08:48:27Z</time>
      </trkpt>
      <trkpt lat="43.22393" lon="6.62459">
        <ele>137.1252441</ele>
        <time>2015-08-17T08:48:32Z</time>
      </trkpt>
      <trkpt lat="43.22378" lon="6.62471">
        <ele>136.6446533</ele>
        <time>2015-08-17T08:48:35Z</time>
      </trkpt>
      <trkpt lat="43.22364" lon="6.62493">
        <ele>137.1252441</ele>
        <time>2015-08-17T08:48:39Z</time>
      </trkpt>
      <trkpt lat="43.22355" lon="6.62514">
        <ele>137.605835</ele>
        <time>2015-08-17T08:48:44Z</time>
      </trkpt>
      <trkpt lat="43.22352" lon="6.62516">
        <ele>137.605835</ele>
        <time>2015-08-17T08:48:45Z</time>
      </trkpt>
      <trkpt lat="43.22336" lon="6.62527">
        <ele>138.5672607</ele>
        <time>2015-08-17T08:48:53Z</time>
      </trkpt>
      <trkpt lat="43.22322" lon="6.6254">
        <ele>141.9317627</ele>
        <time>2015-08-17T08:49:01Z</time>
      </trkpt>
      <trkpt lat="43.22315" lon="6.62554">
        <ele>143.3736572</ele>
        <time>2015-08-17T08:49:08Z</time>
      </trkpt>
      <trkpt lat="43.22311" lon="6.62564">
        <ele>145.2963867</ele>
        <time>2015-08-17T08:49:13Z</time>
      </trkpt>
      <trkpt lat="43.22304" lon="6.62574">
        <ele>145.7770996</ele>
        <time>2015-08-17T08:49:19Z</time>
      </trkpt>
      <trkpt lat="43.22299" lon="6.62584">
        <ele>147.2189941</ele>
        <time>2015-08-17T08:49:26Z</time>
      </trkpt>
      <trkpt lat="43.22287" lon="6.62604">
        <ele>146.7384033</ele>
        <time>2015-08-17T08:49:34Z</time>
      </trkpt>
      <trkpt lat="43.22275" lon="6.62619">
        <ele>146.2578125</ele>
        <time>2015-08-17T08:49:41Z</time>
      </trkpt>
      <trkpt lat="43.22265" lon="6.6263">
        <ele>148.1804199</ele>
        <time>2015-08-17T08:49:48Z</time>
      </trkpt>
      <trkpt lat="43.22255" lon="6.62639">
        <ele>147.2189941</ele>
        <time>2015-08-17T08:49:54Z</time>
      </trkpt>
      <trkpt lat="43.22244" lon="6.6265">
        <ele>149.6223145</ele>
        <time>2015-08-17T08:50:01Z</time>
      </trkpt>
      <trkpt lat="43.2223" lon="6.62669">
        <ele>149.6223145</ele>
        <time>2015-08-17T08:50:09Z</time>
      </trkpt>
      <trkpt lat="43.22215" lon="6.6269">
        <ele>150.1030273</ele>
        <time>2015-08-17T08:50:16Z</time>
      </trkpt>
      <trkpt lat="43.22199" lon="6.62703">
        <ele>151.5449219</ele>
        <time>2015-08-17T08:50:23Z</time>
      </trkpt>
      <trkpt lat="43.22182" lon="6.62712">
        <ele>154.4289551</ele>
        <time>2015-08-17T08:50:31Z</time>
      </trkpt>
      <trkpt lat="43.22168" lon="6.62714">
        <ele>153.9483643</ele>
        <time>2015-08-17T08:50:37Z</time>
      </trkpt>
      <trkpt lat="43.22156" lon="6.62724">
        <ele>152.0257568</ele>
        <time>2015-08-17T08:50:41Z</time>
      </trkpt>
      <trkpt lat="43.2214" lon="6.62733">
        <ele>150.5836182</ele>
        <time>2015-08-17T08:50:45Z</time>
      </trkpt>
      <trkpt lat="43.22118" lon="6.62746">
        <ele>151.5449219</ele>
        <time>2015-08-17T08:50:52Z</time>
      </trkpt>
      <trkpt lat="43.22105" lon="6.62753">
        <ele>150.1030273</ele>
        <time>2015-08-17T08:50:56Z</time>
      </trkpt>
      <trkpt lat="43.22082" lon="6.62749">
        <ele>148.1804199</ele>
        <time>2015-08-17T08:51:02Z</time>
      </trkpt>
      <trkpt lat="43.22071" lon="6.62739">
        <ele>146.2578125</ele>
        <time>2015-08-17T08:51:07Z</time>
      </trkpt>
      <trkpt lat="43.22058" lon="6.62733">
        <ele>144.3352051</ele>
        <time>2015-08-17T08:51:12Z</time>
      </trkpt>
      <trkpt lat="43.22055" lon="6.62711">
        <ele>141.4510498</ele>
        <time>2015-08-17T08:51:17Z</time>
      </trkpt>
      <trkpt lat="43.22057" lon="6.62701">
        <ele>140.0091553</ele>
        <time>2015-08-17T08:51:19Z</time>
      </trkpt>
      <trkpt lat="43.22065" lon="6.62672">
        <ele>137.1252441</ele>
        <time>2015-08-17T08:51:25Z</time>
      </trkpt>
      <trkpt lat="43.2207" lon="6.62659">
        <ele>135.2025146</ele>
        <time>2015-08-17T08:51:30Z</time>
      </trkpt>
      <trkpt lat="43.22074" lon="6.62654">
        <ele>134.2412109</ele>
        <time>2015-08-17T08:51:33Z</time>
      </trkpt>
      <trkpt lat="43.22084" lon="6.62639">
        <ele>133.2799072</ele>
        <time>2015-08-17T08:51:39Z</time>
      </trkpt>
      <trkpt lat="43.22087" lon="6.62634">
        <ele>131.8378906</ele>
        <time>2015-08-17T08:51:41Z</time>
      </trkpt>
      <trkpt lat="43.22082" lon="6.62625">
        <ele>129.9152832</ele>
        <time>2015-08-17T08:51:46Z</time>
      </trkpt>
      <trkpt lat="43.22076" lon="6.62626">
        <ele>130.3959961</ele>
        <time>2015-08-17T08:51:49Z</time>
      </trkpt>
      <trkpt lat="43.22058" lon="6.62636">
        <ele>125.5893555</ele>
        <time>2015-08-17T08:51:57Z</time>
      </trkpt>
      <trkpt lat="43.22042" lon="6.62644">
        <ele>123.666748</ele>
        <time>2015-08-17T08:52:03Z</time>
      </trkpt>
      <trkpt lat="43.22022" lon="6.62649">
        <ele>120.302124</ele>
        <time>2015-08-17T08:52:10Z</time>
      </trkpt>
      <trkpt lat="43.22006" lon="6.62648">
        <ele>118.3793945</ele>
        <time>2015-08-17T08:52:15Z</time>
      </trkpt>
      <trkpt lat="43.21986" lon="6.62652">
        <ele>115.4956055</ele>
        <time>2015-08-17T08:52:20Z</time>
      </trkpt>
      <trkpt lat="43.21966" lon="6.62651">
        <ele>110.6888428</ele>
        <time>2015-08-17T08:52:24Z</time>
      </trkpt>
      <trkpt lat="43.21937" lon="6.6264">
        <ele>105.8824463</ele>
        <time>2015-08-17T08:52:29Z</time>
      </trkpt>
      <trkpt lat="43.21918" lon="6.62632">
        <ele>102.5177002</ele>
        <time>2015-08-17T08:52:32Z</time>
      </trkpt>
      <trkpt lat="43.21899" lon="6.62614">
        <ele>95.7884521</ele>
        <time>2015-08-17T08:52:36Z</time>
      </trkpt>
      <trkpt lat="43.21879" lon="6.62594">
        <ele>93.8658447</ele>
        <time>2015-08-17T08:52:41Z</time>
      </trkpt>
      <trkpt lat="43.21871" lon="6.62595">
        <ele>92.4239502</ele>
        <time>2015-08-17T08:52:43Z</time>
      </trkpt>
      <trkpt lat="43.21863" lon="6.626">
        <ele>91.9432373</ele>
        <time>2015-08-17T08:52:49Z</time>
      </trkpt>
      <trkpt lat="43.21863" lon="6.626">
        <ele>96.2692871</ele>
        <time>2015-08-17T08:53:07Z</time>
      </trkpt>
      <trkpt lat="43.21862" lon="6.62603">
        <ele>98.1918945</ele>
        <time>2015-08-17T08:53:29Z</time>
      </trkpt>
      <trkpt lat="43.21863" lon="6.62599">
        <ele>92.4239502</ele>
        <time>2015-08-17T08:53:56Z</time>
      </trkpt>
      <trkpt lat="43.21862" lon="6.62599">
        <ele>92.904541</ele>
        <time>2015-08-17T08:54:05Z</time>
      </trkpt>
      <trkpt lat="43.21856" lon="6.62603">
        <ele>95.7884521</ele>
        <time>2015-08-17T08:54:14Z</time>
      </trkpt>
      <trkpt lat="43.21855" lon="6.62604">
        <ele>95.7884521</ele>
        <time>2015-08-17T08:54:15Z</time>
      </trkpt>
      <trkpt lat="43.21851" lon="6.62606">
        <ele>95.3077393</ele>
        <time>2015-08-17T08:54:21Z</time>
      </trkpt>
      <trkpt lat="43.21848" lon="6.6261">
        <ele>94.8271484</ele>
        <time>2015-08-17T08:54:59Z</time>
      </trkpt>
      <trkpt lat="43.21843" lon="6.62624">
        <ele>94.3465576</ele>
        <time>2015-08-17T08:55:05Z</time>
      </trkpt>
      <trkpt lat="43.21837" lon="6.62653">
        <ele>90.0206299</ele>
        <time>2015-08-17T08:55:11Z</time>
      </trkpt>
      <trkpt lat="43.21836" lon="6.62658">
        <ele>90.5013428</ele>
        <time>2015-08-17T08:55:12Z</time>
      </trkpt>
      <trkpt lat="43.21825" lon="6.62661">
        <ele>88.5787354</ele>
        <time>2015-08-17T08:55:16Z</time>
      </trkpt>
      <trkpt lat="43.21821" lon="6.62646">
        <ele>86.6560059</ele>
        <time>2015-08-17T08:55:19Z</time>
      </trkpt>
      <trkpt lat="43.2182" lon="6.6264">
        <ele>85.6945801</ele>
        <time>2015-08-17T08:55:20Z</time>
      </trkpt>
      <trkpt lat="43.21817" lon="6.62606">
        <ele>81.8493652</ele>
        <time>2015-08-17T08:55:24Z</time>
      </trkpt>
      <trkpt lat="43.21807" lon="6.6257">
        <ele>79.4460449</ele>
        <time>2015-08-17T08:55:28Z</time>
      </trkpt>
      <trkpt lat="43.21804" lon="6.62555">
        <ele>78.0040283</ele>
        <time>2015-08-17T08:55:30Z</time>
      </trkpt>
      <trkpt lat="43.2179" lon="6.62533">
        <ele>75.1202393</ele>
        <time>2015-08-17T08:55:35Z</time>
      </trkpt>
      <trkpt lat="43.21778" lon="6.62528">
        <ele>74.6395264</ele>
        <time>2015-08-17T08:55:38Z</time>
      </trkpt>
      <trkpt lat="43.21762" lon="6.62518">
        <ele>73.1976318</ele>
        <time>2015-08-17T08:55:45Z</time>
      </trkpt>
      <trkpt lat="43.21757" lon="6.62531">
        <ele>72.7169189</ele>
        <time>2015-08-17T08:55:49Z</time>
      </trkpt>
      <trkpt lat="43.21755" lon="6.62569">
        <ele>68.3908691</ele>
        <time>2015-08-17T08:55:55Z</time>
      </trkpt>
      <trkpt lat="43.21754" lon="6.62576">
        <ele>67.9102783</ele>
        <time>2015-08-17T08:55:56Z</time>
      </trkpt>
      <trkpt lat="43.21755" lon="6.62591">
        <ele>66.4682617</ele>
        <time>2015-08-17T08:55:58Z</time>
      </trkpt>
      <trkpt lat="43.21747" lon="6.62616">
        <ele>62.6229248</ele>
        <time>2015-08-17T08:56:03Z</time>
      </trkpt>
      <trkpt lat="43.21744" lon="6.62619">
        <ele>61.6617432</ele>
        <time>2015-08-17T08:56:04Z</time>
      </trkpt>
      <trkpt lat="43.21736" lon="6.62624">
        <ele>59.7391357</ele>
        <time>2015-08-17T08:56:06Z</time>
      </trkpt>
      <trkpt lat="43.2172" lon="6.62625">
        <ele>56.8551025</ele>
        <time>2015-08-17T08:56:10Z</time>
      </trkpt>
      <trkpt lat="43.21697" lon="6.62619">
        <ele>55.4130859</ele>
        <time>2015-08-17T08:56:15Z</time>
      </trkpt>
      <trkpt lat="43.21692" lon="6.62618">
        <ele>55.4130859</ele>
        <time>2015-08-17T08:56:16Z</time>
      </trkpt>
      <trkpt lat="43.21673" lon="6.62625">
        <ele>53.4904785</ele>
        <time>2015-08-17T08:56:20Z</time>
      </trkpt>
      <trkpt lat="43.21668" lon="6.6263">
        <ele>53.4904785</ele>
        <time>2015-08-17T08:56:21Z</time>
      </trkpt>
      <trkpt lat="43.21629" lon="6.62656">
        <ele>51.5678711</ele>
        <time>2015-08-17T08:56:28Z</time>
      </trkpt>
      <trkpt lat="43.21615" lon="6.62664">
        <ele>49.1645508</ele>
        <time>2015-08-17T08:56:32Z</time>
      </trkpt>
      <trkpt lat="43.21613" lon="6.62665">
        <ele>48.68396</ele>
        <time>2015-08-17T08:56:33Z</time>
      </trkpt>
      <trkpt lat="43.21603" lon="6.62665">
        <ele>48.2033691</ele>
        <time>2015-08-17T08:56:39Z</time>
      </trkpt>
      <trkpt lat="43.21601" lon="6.62667">
        <ele>48.68396</ele>
        <time>2015-08-17T08:56:45Z</time>
      </trkpt>
      <trkpt lat="43.21599" lon="6.62671">
        <ele>48.2033691</ele>
        <time>2015-08-17T08:56:48Z</time>
      </trkpt>
      <trkpt lat="43.21598" lon="6.62688">
        <ele>47.2418213</ele>
        <time>2015-08-17T08:56:54Z</time>
      </trkpt>
      <trkpt lat="43.21594" lon="6.62701">
        <ele>50.1259766</ele>
        <time>2015-08-17T08:56:59Z</time>
      </trkpt>
      <trkpt lat="43.21589" lon="6.6272">
        <ele>47.7225342</ele>
        <time>2015-08-17T08:57:04Z</time>
      </trkpt>
      <trkpt lat="43.21586" lon="6.62764">
        <ele>45.7999268</ele>
        <time>2015-08-17T08:57:13Z</time>
      </trkpt>
      <trkpt lat="43.21586" lon="6.62798">
        <ele>50.1259766</ele>
        <time>2015-08-17T08:57:21Z</time>
      </trkpt>
      <trkpt lat="43.21593" lon="6.62831">
        <ele>53.9711914</ele>
        <time>2015-08-17T08:57:29Z</time>
      </trkpt>
      <trkpt lat="43.21593" lon="6.62857">
        <ele>56.3745117</ele>
        <time>2015-08-17T08:57:36Z</time>
      </trkpt>
      <trkpt lat="43.21593" lon="6.62894">
        <ele>54.932373</ele>
        <time>2015-08-17T08:57:45Z</time>
      </trkpt>
      <trkpt lat="43.21593" lon="6.62927">
        <ele>51.5678711</ele>
        <time>2015-08-17T08:57:53Z</time>
      </trkpt>
      <trkpt lat="43.2159" lon="6.62953">
        <ele>53.9711914</ele>
        <time>2015-08-17T08:57:59Z</time>
      </trkpt>
      <trkpt lat="43.21584" lon="6.62977">
        <ele>55.8937988</ele>
        <time>2015-08-17T08:58:05Z</time>
      </trkpt>
      <trkpt lat="43.21579" lon="6.63002">
        <ele>57.3358154</ele>
        <time>2015-08-17T08:58:12Z</time>
      </trkpt>
      <trkpt lat="43.21578" lon="6.6303">
        <ele>54.932373</ele>
        <time>2015-08-17T08:58:19Z</time>
      </trkpt>
      <trkpt lat="43.21577" lon="6.63063">
        <ele>58.2971191</ele>
        <time>2015-08-17T08:58:26Z</time>
      </trkpt>
      <trkpt lat="43.21575" lon="6.631">
        <ele>55.4130859</ele>
        <time>2015-08-17T08:58:33Z</time>
      </trkpt>
      <trkpt lat="43.21571" lon="6.63144">
        <ele>53.9711914</ele>
        <time>2015-08-17T08:58:40Z</time>
      </trkpt>
      <trkpt lat="43.21567" lon="6.63183">
        <ele>55.4130859</ele>
        <time>2015-08-17T08:58:47Z</time>
      </trkpt>
      <trkpt lat="43.2156" lon="6.63217">
        <ele>55.4130859</ele>
        <time>2015-08-17T08:58:54Z</time>
      </trkpt>
      <trkpt lat="43.21548" lon="6.63239">
        <ele>56.8551025</ele>
        <time>2015-08-17T08:59:00Z</time>
      </trkpt>
      <trkpt lat="43.21534" lon="6.63259">
        <ele>57.3358154</ele>
        <time>2015-08-17T08:59:05Z</time>
      </trkpt>
      <trkpt lat="43.21525" lon="6.63276">
        <ele>60.2197266</ele>
        <time>2015-08-17T08:59:10Z</time>
      </trkpt>
      <trkpt lat="43.2152" lon="6.63296">
        <ele>61.6617432</ele>
        <time>2015-08-17T08:59:16Z</time>
      </trkpt>
      <trkpt lat="43.21511" lon="6.63317">
        <ele>64.5456543</ele>
        <time>2015-08-17T08:59:23Z</time>
      </trkpt>
      <trkpt lat="43.21506" lon="6.63339">
        <ele>65.5070801</ele>
        <time>2015-08-17T08:59:29Z</time>
      </trkpt>
      <trkpt lat="43.21504" lon="6.63367">
        <ele>67.9102783</ele>
        <time>2015-08-17T08:59:36Z</time>
      </trkpt>
      <trkpt lat="43.21502" lon="6.63394">
        <ele>71.2749023</ele>
        <time>2015-08-17T08:59:43Z</time>
      </trkpt>
      <trkpt lat="43.21505" lon="6.63426">
        <ele>74.6395264</ele>
        <time>2015-08-17T08:59:51Z</time>
      </trkpt>
      <trkpt lat="43.21505" lon="6.63445">
        <ele>76.0814209</ele>
        <time>2015-08-17T08:59:55Z</time>
      </trkpt>
      <trkpt lat="43.21511" lon="6.63473">
        <ele>75.6008301</ele>
        <time>2015-08-17T08:59:59Z</time>
      </trkpt>
      <trkpt lat="43.21518" lon="6.63505">
        <ele>75.1202393</ele>
        <time>2015-08-17T09:00:02Z</time>
      </trkpt>
      <trkpt lat="43.21528" lon="6.6354">
        <ele>73.1976318</ele>
        <time>2015-08-17T09:00:05Z</time>
      </trkpt>
      <trkpt lat="43.21528" lon="6.63594">
        <ele>66.4682617</ele>
        <time>2015-08-17T09:00:09Z</time>
      </trkpt>
      <trkpt lat="43.21526" lon="6.63606">
        <ele>64.0650635</ele>
        <time>2015-08-17T09:00:10Z</time>
      </trkpt>
      <trkpt lat="43.21521" lon="6.63677">
        <ele>53.4904785</ele>
        <time>2015-08-17T09:00:15Z</time>
      </trkpt>
      <trkpt lat="43.21518" lon="6.63701">
        <ele>47.7225342</ele>
        <time>2015-08-17T09:00:17Z</time>
      </trkpt>
      <trkpt lat="43.21508" lon="6.63731">
        <ele>45.3192139</ele>
        <time>2015-08-17T09:00:20Z</time>
      </trkpt>
      <trkpt lat="43.21519" lon="6.63761">
        <ele>36.6674805</ele>
        <time>2015-08-17T09:00:24Z</time>
      </trkpt>
      <trkpt lat="43.21536" lon="6.63766">
        <ele>37.1480713</ele>
        <time>2015-08-17T09:00:27Z</time>
      </trkpt>
      <trkpt lat="43.21541" lon="6.63767">
        <ele>37.1480713</ele>
        <time>2015-08-17T09:00:28Z</time>
      </trkpt>
      <trkpt lat="43.2155" lon="6.63773">
        <ele>34.744873</ele>
        <time>2015-08-17T09:00:33Z</time>
      </trkpt>
      <trkpt lat="43.21556" lon="6.63794">
        <ele>33.7834473</ele>
        <time>2015-08-17T09:00:39Z</time>
      </trkpt>
      <trkpt lat="43.21555" lon="6.63815">
        <ele>33.3028564</ele>
        <time>2015-08-17T09:00:43Z</time>
      </trkpt>
      <trkpt lat="43.21548" lon="6.63847">
        <ele>31.380127</ele>
        <time>2015-08-17T09:00:48Z</time>
      </trkpt>
      <trkpt lat="43.21541" lon="6.63895">
        <ele>31.380127</ele>
        <time>2015-08-17T09:00:53Z</time>
      </trkpt>
      <trkpt lat="43.21539" lon="6.63944">
        <ele>28.4962158</ele>
        <time>2015-08-17T09:00:57Z</time>
      </trkpt>
      <trkpt lat="43.21542" lon="6.64034">
        <ele>22.7282715</ele>
        <time>2015-08-17T09:01:03Z</time>
      </trkpt>
      <trkpt lat="43.21539" lon="6.64128">
        <ele>18.4023438</ele>
        <time>2015-08-17T09:01:09Z</time>
      </trkpt>
      <trkpt lat="43.21546" lon="6.64184">
        <ele>16.4797363</ele>
        <time>2015-08-17T09:01:13Z</time>
      </trkpt>
      <trkpt lat="43.21556" lon="6.64251">
        <ele>13.1151123</ele>
        <time>2015-08-17T09:01:18Z</time>
      </trkpt>
      <trkpt lat="43.21566" lon="6.6433">
        <ele>12.6343994</ele>
        <time>2015-08-17T09:01:24Z</time>
      </trkpt>
      <trkpt lat="43.21567" lon="6.64343">
        <ele>12.6343994</ele>
        <time>2015-08-17T09:01:25Z</time>
      </trkpt>
      <trkpt lat="43.21563" lon="6.64392">
        <ele>13.1151123</ele>
        <time>2015-08-17T09:01:29Z</time>
      </trkpt>
      <trkpt lat="43.21561" lon="6.64404">
        <ele>13.1151123</ele>
        <time>2015-08-17T09:01:30Z</time>
      </trkpt>
      <trkpt lat="43.21561" lon="6.64487">
        <ele>10.2312012</ele>
        <time>2015-08-17T09:01:37Z</time>
      </trkpt>
      <trkpt lat="43.21561" lon="6.64552">
        <ele>9.7506104</ele>
        <time>2015-08-17T09:01:43Z</time>
      </trkpt>
      <trkpt lat="43.21567" lon="6.64596">
        <ele>10.711792</ele>
        <time>2015-08-17T09:01:48Z</time>
      </trkpt>
      <trkpt lat="43.21567" lon="6.64613">
        <ele>10.2312012</ele>
        <time>2015-08-17T09:01:50Z</time>
      </trkpt>
      <trkpt lat="43.21556" lon="6.6464">
        <ele>7.347168</ele>
        <time>2015-08-17T09:01:54Z</time>
      </trkpt>
      <trkpt lat="43.21546" lon="6.64647">
        <ele>6.8664551</ele>
        <time>2015-08-17T09:01:56Z</time>
      </trkpt>
      <trkpt lat="43.2153" lon="6.64651">
        <ele>7.8278809</ele>
        <time>2015-08-17T09:02:00Z</time>
      </trkpt>
      <trkpt lat="43.21522" lon="6.64657">
        <ele>8.3085938</ele>
        <time>2015-08-17T09:02:05Z</time>
      </trkpt>
      <trkpt lat="43.21523" lon="6.64676">
        <ele>6.8664551</ele>
        <time>2015-08-17T09:02:10Z</time>
      </trkpt>
      <trkpt lat="43.21528" lon="6.64693">
        <ele>5.9052734</ele>
        <time>2015-08-17T09:02:13Z</time>
      </trkpt>
      <trkpt lat="43.21555" lon="6.64747">
        <ele>8.7891846</ele>
        <time>2015-08-17T09:02:23Z</time>
      </trkpt>
      <trkpt lat="43.21557" lon="6.6476">
        <ele>8.7891846</ele>
        <time>2015-08-17T09:02:28Z</time>
      </trkpt>
      <trkpt lat="43.21558" lon="6.64776">
        <ele>7.347168</ele>
        <time>2015-08-17T09:02:35Z</time>
      </trkpt>
      <trkpt lat="43.21559" lon="6.64778">
        <ele>7.347168</ele>
        <time>2015-08-17T09:02:43Z</time>
      </trkpt>
      <trkpt lat="43.2156" lon="6.64781">
        <ele>9.2698975</ele>
        <time>2015-08-17T09:02:49Z</time>
      </trkpt>
      <trkpt lat="43.21561" lon="6.64799">
        <ele>8.3085938</ele>
        <time>2015-08-17T09:02:55Z</time>
      </trkpt>
      <trkpt lat="43.2156" lon="6.64804">
        <ele>8.3085938</ele>
        <time>2015-08-17T09:02:56Z</time>
      </trkpt>
      <trkpt lat="43.21554" lon="6.64844">
        <ele>6.8664551</ele>
        <time>2015-08-17T09:03:04Z</time>
      </trkpt>
      <trkpt lat="43.21549" lon="6.64868">
        <ele>7.8278809</ele>
        <time>2015-08-17T09:03:09Z</time>
      </trkpt>
      <trkpt lat="43.21543" lon="6.64903">
        <ele>7.8278809</ele>
        <time>2015-08-17T09:03:15Z</time>
      </trkpt>
      <trkpt lat="43.21541" lon="6.64909">
        <ele>7.8278809</ele>
        <time>2015-08-17T09:03:16Z</time>
      </trkpt>
      <trkpt lat="43.21538" lon="6.64919">
        <ele>8.3085938</ele>
        <time>2015-08-17T09:03:18Z</time>
      </trkpt>
      <trkpt lat="43.21533" lon="6.64952">
        <ele>9.2698975</ele>
        <time>2015-08-17T09:03:23Z</time>
      </trkpt>
      <trkpt lat="43.21539" lon="6.64998">
        <ele>15.5184326</ele>
        <time>2015-08-17T09:03:30Z</time>
      </trkpt>
      <trkpt lat="43.21543" lon="6.65034">
        <ele>12.1538086</ele>
        <time>2015-08-17T09:03:36Z</time>
      </trkpt>
      <trkpt lat="43.21546" lon="6.65075">
        <ele>8.7891846</ele>
        <time>2015-08-17T09:03:43Z</time>
      </trkpt>
      <trkpt lat="43.21547" lon="6.65107">
        <ele>8.3085938</ele>
        <time>2015-08-17T09:03:49Z</time>
      </trkpt>
      <trkpt lat="43.21548" lon="6.65136">
        <ele>8.7891846</ele>
        <time>2015-08-17T09:03:55Z</time>
      </trkpt>
      <trkpt lat="43.21545" lon="6.65175">
        <ele>7.347168</ele>
        <time>2015-08-17T09:04:02Z</time>
      </trkpt>
      <trkpt lat="43.2154" lon="6.65208">
        <ele>5.4245605</ele>
        <time>2015-08-17T09:04:09Z</time>
      </trkpt>
      <trkpt lat="43.21542" lon="6.65225">
        <ele>3.982666</ele>
        <time>2015-08-17T09:04:13Z</time>
      </trkpt>
      <trkpt lat="43.21537" lon="6.65246">
        <ele>1.5793457</ele>
        <time>2015-08-17T09:04:18Z</time>
      </trkpt>
      <trkpt lat="43.21522" lon="6.65271">
        <ele>4.4632568</ele>
        <time>2015-08-17T09:04:24Z</time>
      </trkpt>
      <trkpt lat="43.21513" lon="6.65291">
        <ele>5.9052734</ele>
        <time>2015-08-17T09:04:29Z</time>
      </trkpt>
      <trkpt lat="43.21511" lon="6.65313">
        <ele>4.9438477</ele>
        <time>2015-08-17T09:04:33Z</time>
      </trkpt>
      <trkpt lat="43.21515" lon="6.65331">
        <ele>3.982666</ele>
        <time>2015-08-17T09:04:36Z</time>
      </trkpt>
      <trkpt lat="43.21517" lon="6.65343">
        <ele>3.5019531</ele>
        <time>2015-08-17T09:04:38Z</time>
      </trkpt>
      <trkpt lat="43.21514" lon="6.65382">
        <ele>1.5793457</ele>
        <time>2015-08-17T09:04:44Z</time>
      </trkpt>
      <trkpt lat="43.21507" lon="6.65406">
        <ele>1.5793457</ele>
        <time>2015-08-17T09:04:48Z</time>
      </trkpt>
      <trkpt lat="43.21498" lon="6.65431">
        <ele>3.5019531</ele>
        <time>2015-08-17T09:04:52Z</time>
      </trkpt>
      <trkpt lat="43.21475" lon="6.65454">
        <ele>3.982666</ele>
        <time>2015-08-17T09:04:57Z</time>
      </trkpt>
      <trkpt lat="43.21462" lon="6.65473">
        <ele>2.0600586</ele>
        <time>2015-08-17T09:05:00Z</time>
      </trkpt>
      <trkpt lat="43.21446" lon="6.65514">
        <ele>-3.7078857</ele>
        <time>2015-08-17T09:05:06Z</time>
      </trkpt>
      <trkpt lat="43.21442" lon="6.65542">
        <ele>-3.7078857</ele>
        <time>2015-08-17T09:05:10Z</time>
      </trkpt>
      <trkpt lat="43.21432" lon="6.65576">
        <ele>-2.2659912</ele>
        <time>2015-08-17T09:05:16Z</time>
      </trkpt>
      <trkpt lat="43.21421" lon="6.65618">
        <ele>-0.3433838</ele>
        <time>2015-08-17T09:05:24Z</time>
      </trkpt>
      <trkpt lat="43.21411" lon="6.65652">
        <ele>0.618042</ele>
        <time>2015-08-17T09:05:30Z</time>
      </trkpt>
      <trkpt lat="43.214" lon="6.65685">
        <ele>0.618042</ele>
        <time>2015-08-17T09:05:36Z</time>
      </trkpt>
      <trkpt lat="43.21396" lon="6.65704">
        <ele>1.0986328</ele>
        <time>2015-08-17T09:05:39Z</time>
      </trkpt>
      <trkpt lat="43.21391" lon="6.65723">
        <ele>1.5793457</ele>
        <time>2015-08-17T09:05:42Z</time>
      </trkpt>
      <trkpt lat="43.21382" lon="6.65737">
        <ele>2.0600586</ele>
        <time>2015-08-17T09:05:46Z</time>
      </trkpt>
      <trkpt lat="43.21374" lon="6.65738">
        <ele>1.5793457</ele>
        <time>2015-08-17T09:05:51Z</time>
      </trkpt>
      <trkpt lat="43.21376" lon="6.65738">
        <ele>3.0212402</ele>
        <time>2015-08-17T09:05:57Z</time>
      </trkpt>
      <trkpt lat="43.21376" lon="6.65735">
        <ele>3.0212402</ele>
        <time>2015-08-17T09:06:01Z</time>
      </trkpt>
      <trkpt lat="43.21376" lon="6.6571">
        <ele>3.0212402</ele>
        <time>2015-08-17T09:06:08Z</time>
      </trkpt>
      <trkpt lat="43.21369" lon="6.65671">
        <ele>1.5793457</ele>
        <time>2015-08-17T09:06:15Z</time>
      </trkpt>
      <trkpt lat="43.21367" lon="6.65666">
        <ele>1.5793457</ele>
        <time>2015-08-17T09:06:16Z</time>
      </trkpt>
      <trkpt lat="43.21344" lon="6.65636">
        <ele>1.5793457</ele>
        <time>2015-08-17T09:06:23Z</time>
      </trkpt>
      <trkpt lat="43.2133" lon="6.65622">
        <ele>0.1374512</ele>
        <time>2015-08-17T09:06:27Z</time>
      </trkpt>
      <trkpt lat="43.21319" lon="6.65606">
        <ele>-1.3046875</ele>
        <time>2015-08-17T09:06:33Z</time>
      </trkpt>
      <trkpt lat="43.21315" lon="6.65598">
        <ele>-1.3046875</ele>
        <time>2015-08-17T09:06:37Z</time>
      </trkpt>
      <trkpt lat="43.21314" lon="6.65596">
        <ele>0.1374512</ele>
        <time>2015-08-17T09:06:43Z</time>
      </trkpt>
      <trkpt lat="43.21313" lon="6.65596">
        <ele>1.0986328</ele>
        <time>2015-08-17T09:06:55Z</time>
      </trkpt>
      <trkpt lat="43.21312" lon="6.65596">
        <ele>2.0600586</ele>
        <time>2015-08-17T09:07:08Z</time>
      </trkpt>
      <trkpt lat="43.21311" lon="6.65596">
        <ele>2.0600586</ele>
        <time>2015-08-17T09:07:09Z</time>
      </trkpt>
      <trkpt lat="43.21303" lon="6.65603">
        <ele>1.5793457</ele>
        <time>2015-08-17T09:07:13Z</time>
      </trkpt>
      <trkpt lat="43.21284" lon="6.65627">
        <ele>1.0986328</ele>
        <time>2015-08-17T09:07:20Z</time>
      </trkpt>
      <trkpt lat="43.21252" lon="6.65655">
        <ele>1.0986328</ele>
        <time>2015-08-17T09:07:28Z</time>
      </trkpt>
      <trkpt lat="43.21227" lon="6.65669">
        <ele>6.3858643</ele>
        <time>2015-08-17T09:07:34Z</time>
      </trkpt>
      <trkpt lat="43.2121" lon="6.65673">
        <ele>8.7891846</ele>
        <time>2015-08-17T09:07:38Z</time>
      </trkpt>
      <trkpt lat="43.21176" lon="6.65686">
        <ele>8.3085938</ele>
        <time>2015-08-17T09:07:46Z</time>
      </trkpt>
      <trkpt lat="43.21163" lon="6.65693">
        <ele>6.3858643</ele>
        <time>2015-08-17T09:07:52Z</time>
      </trkpt>
      <trkpt lat="43.21147" lon="6.65697">
        <ele>3.982666</ele>
        <time>2015-08-17T09:07:58Z</time>
      </trkpt>
      <trkpt lat="43.21131" lon="6.657">
        <ele>3.5019531</ele>
        <time>2015-08-17T09:08:03Z</time>
      </trkpt>
      <trkpt lat="43.21105" lon="6.65708">
        <ele>3.0212402</ele>
        <time>2015-08-17T09:08:10Z</time>
      </trkpt>
      <trkpt lat="43.21075" lon="6.65717">
        <ele>4.4632568</ele>
        <time>2015-08-17T09:08:18Z</time>
      </trkpt>
      <trkpt lat="43.2105" lon="6.65727">
        <ele>4.9438477</ele>
        <time>2015-08-17T09:08:25Z</time>
      </trkpt>
      <trkpt lat="43.21023" lon="6.65737">
        <ele>6.8664551</ele>
        <time>2015-08-17T09:08:33Z</time>
      </trkpt>
      <trkpt lat="43.20999" lon="6.6575">
        <ele>6.8664551</ele>
        <time>2015-08-17T09:08:40Z</time>
      </trkpt>
      <trkpt lat="43.20973" lon="6.6576">
        <ele>7.8278809</ele>
        <time>2015-08-17T09:08:48Z</time>
      </trkpt>
      <trkpt lat="43.2095" lon="6.65769">
        <ele>10.2312012</ele>
        <time>2015-08-17T09:08:56Z</time>
      </trkpt>
      <trkpt lat="43.20944" lon="6.6577">
        <ele>10.711792</ele>
        <time>2015-08-17T09:08:58Z</time>
      </trkpt>
      <trkpt lat="43.20936" lon="6.65759">
        <ele>11.1925049</ele>
        <time>2015-08-17T09:09:02Z</time>
      </trkpt>
      <trkpt lat="43.2093" lon="6.65714">
        <ele>11.6732178</ele>
        <time>2015-08-17T09:09:12Z</time>
      </trkpt>
      <trkpt lat="43.20924" lon="6.65667">
        <ele>11.6732178</ele>
        <time>2015-08-17T09:09:22Z</time>
      </trkpt>
      <trkpt lat="43.20917" lon="6.6563">
        <ele>11.1925049</ele>
        <time>2015-08-17T09:09:29Z</time>
      </trkpt>
      <trkpt lat="43.2091" lon="6.65591">
        <ele>10.711792</ele>
        <time>2015-08-17T09:09:35Z</time>
      </trkpt>
      <trkpt lat="43.20901" lon="6.65527">
        <ele>10.2312012</ele>
        <time>2015-08-17T09:09:45Z</time>
      </trkpt>
      <trkpt lat="43.20891" lon="6.65476">
        <ele>10.2312012</ele>
        <time>2015-08-17T09:09:53Z</time>
      </trkpt>
      <trkpt lat="43.20884" lon="6.65443">
        <ele>9.7506104</ele>
        <time>2015-08-17T09:09:59Z</time>
      </trkpt>
      <trkpt lat="43.20882" lon="6.65437">
        <ele>9.7506104</ele>
        <time>2015-08-17T09:10:03Z</time>
      </trkpt>
      <trkpt lat="43.20879" lon="6.6543">
        <ele>9.7506104</ele>
        <time>2015-08-17T09:10:06Z</time>
      </trkpt>
      <trkpt lat="43.20871" lon="6.65407">
        <ele>10.2312012</ele>
        <time>2015-08-17T09:10:10Z</time>
      </trkpt>
      <trkpt lat="43.20847" lon="6.65348">
        <ele>11.6732178</ele>
        <time>2015-08-17T09:10:19Z</time>
      </trkpt>
      <trkpt lat="43.2083" lon="6.65303">
        <ele>12.6343994</ele>
        <time>2015-08-17T09:10:26Z</time>
      </trkpt>
      <trkpt lat="43.20809" lon="6.65245">
        <ele>13.5958252</ele>
        <time>2015-08-17T09:10:36Z</time>
      </trkpt>
      <trkpt lat="43.20799" lon="6.65219">
        <ele>14.076416</ele>
        <time>2015-08-17T09:10:41Z</time>
      </trkpt>
      <trkpt lat="43.20792" lon="6.65207">
        <ele>14.5570068</ele>
        <time>2015-08-17T09:10:44Z</time>
      </trkpt>
      <trkpt lat="43.20775" lon="6.65201">
        <ele>15.0377197</ele>
        <time>2015-08-17T09:10:49Z</time>
      </trkpt>
      <trkpt lat="43.20771" lon="6.65201">
        <ele>15.5184326</ele>
        <time>2015-08-17T09:10:50Z</time>
      </trkpt>
      <trkpt lat="43.20731" lon="6.65212">
        <ele>15.5184326</ele>
        <time>2015-08-17T09:10:59Z</time>
      </trkpt>
      <trkpt lat="43.20692" lon="6.65226">
        <ele>19.3637695</ele>
        <time>2015-08-17T09:11:07Z</time>
      </trkpt>
      <trkpt lat="43.20659" lon="6.65236">
        <ele>23.2089844</ele>
        <time>2015-08-17T09:11:15Z</time>
      </trkpt>
      <trkpt lat="43.20655" lon="6.65236">
        <ele>23.6895752</ele>
        <time>2015-08-17T09:11:16Z</time>
      </trkpt>
      <trkpt lat="43.20641" lon="6.6523">
        <ele>27.0543213</ele>
        <time>2015-08-17T09:11:21Z</time>
      </trkpt>
      <trkpt lat="43.20639" lon="6.65222">
        <ele>27.5349121</ele>
        <time>2015-08-17T09:11:23Z</time>
      </trkpt>
      <trkpt lat="43.20626" lon="6.65195">
        <ele>28.9769287</ele>
        <time>2015-08-17T09:11:31Z</time>
      </trkpt>
      <trkpt lat="43.20609" lon="6.65173">
        <ele>27.5349121</ele>
        <time>2015-08-17T09:11:38Z</time>
      </trkpt>
      <trkpt lat="43.20598" lon="6.65149">
        <ele>30.4188232</ele>
        <time>2015-08-17T09:11:45Z</time>
      </trkpt>
      <trkpt lat="43.20595" lon="6.6513">
        <ele>31.8607178</ele>
        <time>2015-08-17T09:11:50Z</time>
      </trkpt>
      <trkpt lat="43.20585" lon="6.6511">
        <ele>32.3415527</ele>
        <time>2015-08-17T09:11:56Z</time>
      </trkpt>
      <trkpt lat="43.2057" lon="6.65095">
        <ele>33.7834473</ele>
        <time>2015-08-17T09:12:04Z</time>
      </trkpt>
      <trkpt lat="43.20556" lon="6.65098">
        <ele>34.744873</ele>
        <time>2015-08-17T09:12:09Z</time>
      </trkpt>
      <trkpt lat="43.20531" lon="6.65096">
        <ele>36.6674805</ele>
        <time>2015-08-17T09:12:16Z</time>
      </trkpt>
      <trkpt lat="43.20522" lon="6.65092">
        <ele>36.6674805</ele>
        <time>2015-08-17T09:12:19Z</time>
      </trkpt>
      <trkpt lat="43.20511" lon="6.65106">
        <ele>37.1480713</ele>
        <time>2015-08-17T09:12:24Z</time>
      </trkpt>
      <trkpt lat="43.20502" lon="6.65109">
        <ele>38.109375</ele>
        <time>2015-08-17T09:12:27Z</time>
      </trkpt>
      <trkpt lat="43.20475" lon="6.65124">
        <ele>37.6286621</ele>
        <time>2015-08-17T09:12:35Z</time>
      </trkpt>
      <trkpt lat="43.20473" lon="6.65128">
        <ele>37.1480713</ele>
        <time>2015-08-17T09:12:36Z</time>
      </trkpt>
    </trkseg>
  </trk>
</gpx>